BVX10KF EGNX-HKJK
Flight info
| Callsign | BVX10KF |
|---|---|
| Flight time | 9h 6m |
| Altitude | 33000 |
| Route | DTY M605 BENSU/N0448F330 Q70 BIG UL9 KONAN UL607 REMBA DCT LIRSU DCT KRH/N0443F350 DCT UTABA L607 MOMUK DCT GEDSO DCT DEGUM DCT SABAD DCT VAKSU DCT RODON DCT DIMIS DCT SALUN N705 BOPIX N710 TAKRI DCT LXR M999 JDW G650 RIBAM/N0454F370 G650 RASKA/N0456F360 G650 ASM UG650 KONET UM308 RUDOL/N0452F370 UM308 NAK LANE1A |
| Aircraft | A306/H-SDE3FGHIRWY/LB1 |
Departure
| Time | 2026-04-29 21:20 |
|---|---|
| Airport | East Midlands Airport (EGNX) |
Arrival
| Time | 2026-04-30 06:26 |
|---|---|
| Airport | Jomo Kenyatta International Airport (HKJK) |
| Time | Latitude | Longitude | Altitude | Speed | Heading |
|---|---|---|---|---|---|
| 2026-04-29 20:53 | 52.82753 | -1.34868 | 306 ft | 0 kts | 178° |
| 2026-04-29 21:00 | 52.82772 | -1.34869 | 307 ft | 4 kts | 178° |
| 2026-04-29 21:00 | 52.82794 | -1.34869 | 306 ft | 4 kts | 183° |
| 2026-04-29 21:01 | 52.82818 | -1.34860 | 306 ft | 4 kts | 222° |
| 2026-04-29 21:01 | 52.82827 | -1.34829 | 306 ft | 4 kts | 268° |
| 2026-04-29 21:01 | 52.82828 | -1.34785 | 305 ft | 3 kts | 268° |
| 2026-04-29 21:01 | 52.82828 | -1.34779 | 306 ft | 0 kts | 268° |
| 2026-04-29 21:04 | 52.82828 | -1.34780 | 306 ft | 2 kts | 268° |
| 2026-04-29 21:04 | 52.82827 | -1.34846 | 305 ft | 10 kts | 268° |
| 2026-04-29 21:05 | 52.82823 | -1.35007 | 309 ft | 18 kts | 268° |
| 2026-04-29 21:05 | 52.82822 | -1.35219 | 309 ft | 12 kts | 278° |
| 2026-04-29 21:05 | 52.82853 | -1.35259 | 309 ft | 7 kts | 352° |
| 2026-04-29 21:05 | 52.82890 | -1.35214 | 311 ft | 8 kts | 70° |
| 2026-04-29 21:06 | 52.82895 | -1.35091 | 309 ft | 13 kts | 88° |
| 2026-04-29 21:06 | 52.82916 | -1.34946 | 313 ft | 8 kts | 35° |
| 2026-04-29 21:06 | 52.82940 | -1.34937 | 312 ft | 0 kts | 1° |
| 2026-04-29 21:18 | 52.82973 | -1.34937 | 311 ft | 10 kts | 360° |
| 2026-04-29 21:18 | 52.83056 | -1.34885 | 312 ft | 16 kts | 61° |
| 2026-04-29 21:18 | 52.83064 | -1.34771 | 310 ft | 0 kts | 88° |
| 2026-04-29 21:19 | 52.83065 | -1.34736 | 308 ft | 21 kts | 88° |
| 2026-04-29 21:19 | 52.83077 | -1.34111 | 312 ft | 85 kts | 88° |
| 2026-04-29 21:19 | 52.83100 | -1.32812 | 307 ft | 140 kts | 88° |
| 2026-04-29 21:19 | 52.83122 | -1.31000 | 685 ft | 164 kts | 88° |
| 2026-04-29 21:20 | 52.83071 | -1.29129 | 1700 ft | 158 kts | 95° |
| 2026-04-29 21:20 | 52.82953 | -1.27327 | 2552 ft | 160 kts | 97° |
| 2026-04-29 21:20 | 52.82821 | -1.25408 | 3064 ft | 175 kts | 99° |
| 2026-04-29 21:20 | 52.82455 | -1.23427 | 3620 ft | 187 kts | 114° |
| 2026-04-29 21:21 | 52.81668 | -1.21541 | 3932 ft | 214 kts | 127° |
| 2026-04-29 21:21 | 52.80622 | -1.19645 | 4512 ft | 228 kts | 130° |
| 2026-04-29 21:21 | 52.79485 | -1.17770 | 5336 ft | 234 kts | 136° |
| 2026-04-29 21:21 | 52.78081 | -1.16315 | 6132 ft | 245 kts | 153° |
| 2026-04-29 21:22 | 52.76374 | -1.15727 | 6926 ft | 260 kts | 174° |
| 2026-04-29 21:22 | 52.74568 | -1.16344 | 7769 ft | 275 kts | 198° |
| 2026-04-29 21:22 | 52.72937 | -1.18077 | 8484 ft | 283 kts | 212° |
| 2026-04-29 21:22 | 52.71391 | -1.20124 | 9333 ft | 286 kts | 213° |
| 2026-04-29 21:23 | 52.69838 | -1.22212 | 10142 ft | 290 kts | 213° |
| 2026-04-29 21:23 | 52.68259 | -1.24313 | 10852 ft | 293 kts | 213° |
| 2026-04-29 21:23 | 52.66656 | -1.26422 | 11573 ft | 297 kts | 213° |
| 2026-04-29 21:23 | 52.65026 | -1.28553 | 12276 ft | 301 kts | 213° |
| 2026-04-29 21:24 | 52.63378 | -1.30699 | 12986 ft | 304 kts | 214° |
| 2026-04-29 21:24 | 52.61682 | -1.32788 | 13668 ft | 305 kts | 208° |
| 2026-04-29 21:24 | 52.59781 | -1.34299 | 14287 ft | 303 kts | 193° |
| 2026-04-29 21:24 | 52.57721 | -1.35032 | 14601 ft | 313 kts | 184° |
| 2026-04-29 21:25 | 52.55508 | -1.35368 | 14851 ft | 325 kts | 176° |
| 2026-04-29 21:25 | 52.53221 | -1.35015 | 15110 ft | 336 kts | 167° |
| 2026-04-29 21:25 | 52.50889 | -1.34257 | 15379 ft | 348 kts | 164° |
| 2026-04-29 21:25 | 52.48497 | -1.33266 | 15619 ft | 361 kts | 162° |
| 2026-04-29 21:26 | 52.46042 | -1.32128 | 15858 ft | 372 kts | 161° |
| 2026-04-29 21:26 | 52.43528 | -1.30916 | 16219 ft | 380 kts | 161° |
| 2026-04-29 21:26 | 52.40974 | -1.29683 | 16827 ft | 384 kts | 161° |
| 2026-04-29 21:26 | 52.38398 | -1.28454 | 17346 ft | 387 kts | 161° |
| 2026-04-29 21:27 | 52.35795 | -1.27229 | 17881 ft | 390 kts | 161° |
| 2026-04-29 21:27 | 52.33178 | -1.26011 | 18398 ft | 393 kts | 161° |
| 2026-04-29 21:27 | 52.30535 | -1.24790 | 18863 ft | 396 kts | 161° |
| 2026-04-29 21:27 | 52.27877 | -1.23568 | 19298 ft | 399 kts | 161° |
| 2026-04-29 21:28 | 52.25195 | -1.22337 | 19713 ft | 402 kts | 161° |
| 2026-04-29 21:28 | 52.22494 | -1.21100 | 20128 ft | 404 kts | 162° |
| 2026-04-29 21:28 | 52.19785 | -1.19860 | 20561 ft | 406 kts | 162° |
| 2026-04-29 21:28 | 52.17054 | -1.18611 | 20966 ft | 408 kts | 162° |
| 2026-04-29 21:29 | 52.14314 | -1.17358 | 21372 ft | 411 kts | 162° |
| 2026-04-29 21:29 | 52.11555 | -1.16098 | 21771 ft | 413 kts | 162° |
| 2026-04-29 21:29 | 52.08778 | -1.14831 | 22167 ft | 415 kts | 162° |
| 2026-04-29 21:29 | 52.05989 | -1.13561 | 22540 ft | 417 kts | 162° |
| 2026-04-29 21:30 | 52.03188 | -1.12286 | 22920 ft | 420 kts | 162° |
| 2026-04-29 21:30 | 52.00368 | -1.11003 | 23244 ft | 422 kts | 162° |
| 2026-04-29 21:30 | 51.97596 | -1.09403 | 23591 ft | 423 kts | 154° |
| 2026-04-29 21:30 | 51.95040 | -1.07056 | 23925 ft | 424 kts | 143° |
| 2026-04-29 21:31 | 51.92853 | -1.03866 | 24212 ft | 425 kts | 131° |
| 2026-04-29 21:31 | 51.91180 | -0.99916 | 24516 ft | 427 kts | 120° |
| 2026-04-29 21:31 | 51.89863 | -0.95587 | 24795 ft | 429 kts | 114° |
| 2026-04-29 21:31 | 51.88731 | -0.91124 | 25101 ft | 430 kts | 112° |
| 2026-04-29 21:32 | 51.87674 | -0.86583 | 25381 ft | 432 kts | 111° |
| 2026-04-29 21:32 | 51.86634 | -0.82016 | 25656 ft | 433 kts | 111° |
| 2026-04-29 21:32 | 51.85577 | -0.77440 | 25926 ft | 435 kts | 111° |
| 2026-04-29 21:32 | 51.84497 | -0.72869 | 26194 ft | 436 kts | 112° |
| 2026-04-29 21:33 | 51.83394 | -0.68298 | 26441 ft | 437 kts | 112° |
| 2026-04-29 21:33 | 51.82270 | -0.63715 | 26694 ft | 439 kts | 112° |
| 2026-04-29 21:33 | 51.81139 | -0.59137 | 26950 ft | 440 kts | 112° |
| 2026-04-29 21:33 | 51.79996 | -0.54539 | 27196 ft | 441 kts | 112° |
| 2026-04-29 21:34 | 51.78847 | -0.49931 | 27427 ft | 443 kts | 112° |
| 2026-04-29 21:34 | 51.77694 | -0.45316 | 27656 ft | 444 kts | 112° |
| 2026-04-29 21:34 | 51.76538 | -0.40690 | 27977 ft | 445 kts | 112° |
| 2026-04-29 21:34 | 51.75375 | -0.36045 | 28197 ft | 447 kts | 112° |
| 2026-04-29 21:35 | 51.74211 | -0.31403 | 28467 ft | 446 kts | 112° |
| 2026-04-29 21:35 | 51.73046 | -0.26763 | 28802 ft | 445 kts | 112° |
| 2026-04-29 21:35 | 51.71883 | -0.22143 | 29122 ft | 444 kts | 112° |
| 2026-04-29 21:35 | 51.70723 | -0.17542 | 29440 ft | 443 kts | 112° |
| 2026-04-29 21:36 | 51.69562 | -0.12948 | 29761 ft | 442 kts | 112° |
| 2026-04-29 21:36 | 51.68403 | -0.08375 | 30073 ft | 440 kts | 112° |
| 2026-04-29 21:36 | 51.67246 | -0.03817 | 30381 ft | 439 kts | 112° |
| 2026-04-29 21:36 | 51.66089 | 0.00734 | 30553 ft | 438 kts | 112° |
| 2026-04-29 21:37 | 51.64932 | 0.05272 | 30873 ft | 436 kts | 112° |
| 2026-04-29 21:37 | 51.63782 | 0.09778 | 31139 ft | 436 kts | 112° |
| 2026-04-29 21:37 | 51.62626 | 0.14295 | 31376 ft | 436 kts | 113° |
| 2026-04-29 21:37 | 51.61471 | 0.18798 | 31597 ft | 435 kts | 113° |
| 2026-04-29 21:38 | 51.60316 | 0.23295 | 31852 ft | 435 kts | 113° |
| 2026-04-29 21:38 | 51.59159 | 0.27791 | 32111 ft | 435 kts | 113° |
| 2026-04-29 21:38 | 51.58002 | 0.32276 | 32364 ft | 434 kts | 113° |
| 2026-04-29 21:38 | 51.56844 | 0.36758 | 32598 ft | 434 kts | 113° |
| 2026-04-29 21:39 | 51.55680 | 0.41253 | 32741 ft | 436 kts | 113° |
| 2026-04-29 21:39 | 51.54549 | 0.45777 | 32957 ft | 437 kts | 110° |
| 2026-04-29 21:39 | 51.53607 | 0.50411 | 33223 ft | 436 kts | 108° |
| 2026-04-29 21:40 | 51.51905 | 0.59689 | 33287 ft | 429 kts | 106° |
| 2026-04-29 21:40 | 51.50302 | 0.68862 | 33293 ft | 426 kts | 106° |
| 2026-04-29 21:41 | 51.48692 | 0.78024 | 33292 ft | 426 kts | 106° |
| 2026-04-29 21:41 | 51.47060 | 0.87173 | 33290 ft | 427 kts | 107° |
| 2026-04-29 21:42 | 51.45416 | 0.96313 | 33276 ft | 427 kts | 106° |
| 2026-04-29 21:42 | 51.44040 | 1.03916 | 33289 ft | 428 kts | 106° |
| 2026-04-29 21:43 | 51.42094 | 1.14625 | 33279 ft | 429 kts | 106° |
| 2026-04-29 21:43 | 51.40420 | 1.23793 | 33281 ft | 429 kts | 106° |
| 2026-04-29 21:44 | 51.38739 | 1.32949 | 33285 ft | 429 kts | 107° |
| 2026-04-29 21:44 | 51.37337 | 1.40552 | 33287 ft | 429 kts | 107° |
| 2026-04-29 21:45 | 51.35641 | 1.49698 | 33286 ft | 428 kts | 106° |
| 2026-04-29 21:45 | 51.33942 | 1.58827 | 33286 ft | 428 kts | 106° |
| 2026-04-29 21:46 | 51.32234 | 1.67960 | 33284 ft | 428 kts | 106° |
| 2026-04-29 21:46 | 51.30517 | 1.77098 | 33275 ft | 430 kts | 106° |
| 2026-04-29 21:47 | 51.28787 | 1.86254 | 33273 ft | 430 kts | 106° |
| 2026-04-29 21:47 | 51.27049 | 1.95402 | 33270 ft | 430 kts | 106° |
| 2026-04-29 21:48 | 51.25306 | 2.04540 | 33269 ft | 430 kts | 106° |
| 2026-04-29 21:48 | 51.23556 | 2.13673 | 33265 ft | 430 kts | 106° |
| 2026-04-29 21:49 | 51.21800 | 2.22792 | 33264 ft | 430 kts | 106° |
| 2026-04-29 21:49 | 51.20035 | 2.31914 | 33273 ft | 430 kts | 106° |
| 2026-04-29 21:50 | 51.18262 | 2.41025 | 33276 ft | 430 kts | 106° |
| 2026-04-29 21:50 | 51.16484 | 2.50128 | 33276 ft | 430 kts | 106° |
| 2026-04-29 21:51 | 51.14697 | 2.59230 | 33276 ft | 430 kts | 106° |
| 2026-04-29 21:51 | 51.12006 | 2.72860 | 33268 ft | 430 kts | 106° |
| 2026-04-29 21:52 | 51.10202 | 2.81942 | 33291 ft | 430 kts | 106° |
| 2026-04-29 21:52 | 51.08393 | 2.91005 | 33296 ft | 429 kts | 106° |
| 2026-04-29 21:53 | 51.06582 | 3.00038 | 33287 ft | 429 kts | 106° |
| 2026-04-29 21:53 | 51.04764 | 3.09061 | 33279 ft | 429 kts | 106° |
| 2026-04-29 21:54 | 51.02940 | 3.18077 | 33283 ft | 429 kts | 106° |
| 2026-04-29 21:54 | 51.01109 | 3.27084 | 33281 ft | 429 kts | 106° |
| 2026-04-29 21:55 | 50.99271 | 3.36081 | 33280 ft | 428 kts | 105° |
| 2026-04-29 21:55 | 50.97430 | 3.45055 | 33283 ft | 427 kts | 106° |
| 2026-04-29 21:56 | 50.95592 | 3.53972 | 33281 ft | 422 kts | 106° |
| 2026-04-29 21:56 | 50.93767 | 3.62789 | 33290 ft | 420 kts | 106° |
| 2026-04-29 21:57 | 50.91939 | 3.71588 | 33291 ft | 420 kts | 106° |
| 2026-04-29 21:57 | 50.90087 | 3.80459 | 33285 ft | 420 kts | 105° |
| 2026-04-29 21:58 | 50.88261 | 3.89161 | 33286 ft | 420 kts | 106° |
| 2026-04-29 21:58 | 50.86415 | 3.97928 | 33293 ft | 420 kts | 106° |
| 2026-04-29 21:59 | 50.84562 | 4.06686 | 33298 ft | 420 kts | 106° |
| 2026-04-29 21:59 | 50.82607 | 4.15888 | 33295 ft | 420 kts | 106° |
| 2026-04-29 22:00 | 50.80834 | 4.24195 | 33301 ft | 420 kts | 106° |
| 2026-04-29 22:00 | 50.78961 | 4.32933 | 33302 ft | 420 kts | 106° |
| 2026-04-29 22:01 | 50.77078 | 4.41682 | 33297 ft | 420 kts | 106° |
| 2026-04-29 22:01 | 50.75189 | 4.50425 | 33288 ft | 421 kts | 106° |
| 2026-04-29 22:02 | 50.74487 | 4.53656 | 33326 ft | 406 kts | 106° |
| 2026-04-29 22:02 | 50.73572 | 4.57851 | 33270 ft | 405 kts | 106° |
| 2026-04-29 22:02 | 50.71721 | 4.66364 | 33308 ft | 415 kts | 106° |
| 2026-04-29 22:03 | 50.69823 | 4.75058 | 33306 ft | 420 kts | 106° |
| 2026-04-29 22:03 | 50.67908 | 4.83769 | 33297 ft | 420 kts | 106° |
| 2026-04-29 22:04 | 50.65864 | 4.92407 | 33303 ft | 422 kts | 111° |
| 2026-04-29 22:04 | 50.63418 | 5.00832 | 33306 ft | 423 kts | 112° |
| 2026-04-29 22:05 | 50.60897 | 5.09196 | 33302 ft | 423 kts | 112° |
| 2026-04-29 22:06 | 50.57091 | 5.21721 | 33298 ft | 423 kts | 112° |
| 2026-04-29 22:06 | 50.54556 | 5.30063 | 33296 ft | 422 kts | 112° |
| 2026-04-29 22:07 | 50.52020 | 5.38391 | 33303 ft | 423 kts | 112° |
| 2026-04-29 22:07 | 50.49474 | 5.46719 | 33303 ft | 423 kts | 112° |
| 2026-04-29 22:08 | 50.46917 | 5.55060 | 33303 ft | 424 kts | 112° |
| 2026-04-29 22:08 | 50.44352 | 5.63391 | 33305 ft | 424 kts | 112° |
| 2026-04-29 22:09 | 50.41780 | 5.71721 | 33300 ft | 424 kts | 112° |
| 2026-04-29 22:09 | 50.39203 | 5.80038 | 33306 ft | 424 kts | 112° |
| 2026-04-29 22:10 | 50.36621 | 5.88342 | 33301 ft | 424 kts | 112° |
| 2026-04-29 22:10 | 50.34046 | 5.96590 | 33302 ft | 419 kts | 112° |
| 2026-04-29 22:11 | 50.31490 | 6.04748 | 33304 ft | 416 kts | 112° |
| 2026-04-29 22:11 | 50.28944 | 6.12858 | 33301 ft | 415 kts | 112° |
| 2026-04-29 22:12 | 50.26395 | 6.20956 | 33304 ft | 415 kts | 112° |
| 2026-04-29 22:12 | 50.23836 | 6.29055 | 33295 ft | 416 kts | 112° |
| 2026-04-29 22:13 | 50.21261 | 6.37176 | 33298 ft | 417 kts | 112° |
| 2026-04-29 22:13 | 50.18509 | 6.45165 | 33305 ft | 421 kts | 120° |
| 2026-04-29 22:14 | 50.14912 | 6.52400 | 33294 ft | 422 kts | 124° |
| 2026-04-29 22:14 | 50.11131 | 6.59415 | 33286 ft | 423 kts | 126° |
| 2026-04-29 22:15 | 50.07320 | 6.66383 | 33282 ft | 423 kts | 126° |
| 2026-04-29 22:15 | 50.03511 | 6.73363 | 33285 ft | 423 kts | 125° |
| 2026-04-29 22:16 | 49.99711 | 6.80340 | 33284 ft | 423 kts | 125° |
| 2026-04-29 22:16 | 49.95905 | 6.87322 | 33288 ft | 425 kts | 125° |
| 2026-04-29 22:17 | 49.92724 | 6.93142 | 33290 ft | 425 kts | 125° |
| 2026-04-29 22:17 | 49.88243 | 7.01310 | 33304 ft | 426 kts | 125° |
| 2026-04-29 22:18 | 49.84400 | 7.08296 | 33322 ft | 425 kts | 125° |
| 2026-04-29 22:18 | 49.80558 | 7.15263 | 33311 ft | 426 kts | 125° |
| 2026-04-29 22:19 | 49.76708 | 7.22227 | 33311 ft | 426 kts | 126° |
| 2026-04-29 22:19 | 49.72852 | 7.29181 | 33310 ft | 426 kts | 125° |
| 2026-04-29 22:20 | 49.68979 | 7.36153 | 33311 ft | 428 kts | 126° |
| 2026-04-29 22:20 | 49.65089 | 7.43131 | 33313 ft | 428 kts | 126° |
| 2026-04-29 22:21 | 49.61196 | 7.50093 | 33304 ft | 429 kts | 126° |
| 2026-04-29 22:21 | 49.57299 | 7.57042 | 33300 ft | 428 kts | 126° |
| 2026-04-29 22:22 | 49.54060 | 7.62806 | 33310 ft | 428 kts | 126° |
| 2026-04-29 22:22 | 49.50151 | 7.69752 | 33297 ft | 430 kts | 126° |
| 2026-04-29 22:23 | 49.46226 | 7.76707 | 33294 ft | 431 kts | 126° |
| 2026-04-29 22:23 | 49.42284 | 7.83669 | 33310 ft | 432 kts | 126° |
| 2026-04-29 22:24 | 49.38337 | 7.90620 | 33324 ft | 432 kts | 126° |
| 2026-04-29 22:24 | 49.34384 | 7.97562 | 33321 ft | 432 kts | 126° |
| 2026-04-29 22:25 | 49.30426 | 8.04496 | 33310 ft | 432 kts | 126° |
| 2026-04-29 22:25 | 49.26455 | 8.11439 | 33321 ft | 434 kts | 126° |
| 2026-04-29 22:26 | 49.22469 | 8.18386 | 33309 ft | 435 kts | 126° |
| 2026-04-29 22:26 | 49.18471 | 8.25336 | 33305 ft | 436 kts | 126° |
| 2026-04-29 22:27 | 49.14462 | 8.32288 | 33304 ft | 436 kts | 126° |
| 2026-04-29 22:27 | 49.10448 | 8.39226 | 33291 ft | 436 kts | 126° |
| 2026-04-29 22:28 | 49.06426 | 8.46163 | 33289 ft | 436 kts | 126° |
| 2026-04-29 22:28 | 49.03309 | 8.51524 | 33293 ft | 433 kts | 126° |
| 2026-04-29 22:29 | 48.99206 | 8.58276 | 33458 ft | 440 kts | 133° |
| 2026-04-29 22:29 | 48.96871 | 8.61336 | 33559 ft | 444 kts | 135° |
| 2026-04-29 22:29 | 48.94474 | 8.64331 | 33659 ft | 448 kts | 136° |
| 2026-04-29 22:29 | 48.92034 | 8.67296 | 33777 ft | 450 kts | 137° |
| 2026-04-29 22:30 | 48.89569 | 8.70254 | 33875 ft | 453 kts | 137° |
| 2026-04-29 22:30 | 48.87086 | 8.73219 | 33993 ft | 455 kts | 137° |
| 2026-04-29 22:30 | 48.84594 | 8.76195 | 34108 ft | 457 kts | 137° |
| 2026-04-29 22:30 | 48.82090 | 8.79190 | 34223 ft | 459 kts | 137° |
| 2026-04-29 22:31 | 48.79576 | 8.82200 | 34309 ft | 462 kts | 137° |
| 2026-04-29 22:31 | 48.74512 | 8.88262 | 34460 ft | 466 kts | 137° |
| 2026-04-29 22:32 | 48.69394 | 8.94378 | 34583 ft | 471 kts | 138° |
| 2026-04-29 22:32 | 48.66822 | 8.97445 | 34709 ft | 471 kts | 138° |
| 2026-04-29 22:32 | 48.64242 | 9.00515 | 34839 ft | 472 kts | 138° |
| 2026-04-29 22:32 | 48.61666 | 9.03578 | 34987 ft | 472 kts | 139° |
| 2026-04-29 22:33 | 48.59086 | 9.06640 | 35119 ft | 472 kts | 139° |
| 2026-04-29 22:33 | 48.56508 | 9.09697 | 35269 ft | 472 kts | 139° |
| 2026-04-29 22:33 | 48.53924 | 9.12757 | 35307 ft | 470 kts | 138° |
| 2026-04-29 22:34 | 48.48794 | 9.18819 | 35280 ft | 467 kts | 138° |
| 2026-04-29 22:34 | 48.43712 | 9.24812 | 35270 ft | 467 kts | 138° |
| 2026-04-29 22:35 | 48.38594 | 9.30832 | 35272 ft | 467 kts | 138° |
| 2026-04-29 22:35 | 48.33466 | 9.36846 | 35271 ft | 467 kts | 138° |
| 2026-04-29 22:36 | 48.28340 | 9.42842 | 35258 ft | 467 kts | 139° |
| 2026-04-29 22:36 | 48.23265 | 9.48930 | 35266 ft | 468 kts | 137° |
| 2026-04-29 22:37 | 48.18334 | 9.55320 | 35266 ft | 469 kts | 136° |
| 2026-04-29 22:37 | 48.13426 | 9.61757 | 35261 ft | 469 kts | 136° |
| 2026-04-29 22:38 | 48.08495 | 9.68162 | 35262 ft | 469 kts | 136° |
| 2026-04-29 22:38 | 48.03552 | 9.74527 | 35276 ft | 469 kts | 136° |
| 2026-04-29 22:39 | 47.99185 | 9.80129 | 35247 ft | 463 kts | 137° |
| 2026-04-29 22:39 | 47.94248 | 9.86450 | 35248 ft | 471 kts | 137° |
| 2026-04-29 22:40 | 47.89259 | 9.92817 | 35250 ft | 472 kts | 137° |
| 2026-04-29 22:40 | 47.84454 | 9.99446 | 35245 ft | 469 kts | 128° |
| 2026-04-29 22:41 | 47.80788 | 10.07399 | 35238 ft | 465 kts | 118° |
| 2026-04-29 22:41 | 47.77508 | 10.15675 | 35276 ft | 465 kts | 117° |
| 2026-04-29 22:42 | 47.74251 | 10.24088 | 35235 ft | 469 kts | 117° |
| 2026-04-29 22:42 | 47.70970 | 10.32472 | 35247 ft | 470 kts | 117° |
| 2026-04-29 22:43 | 47.67684 | 10.40779 | 35249 ft | 470 kts | 118° |
| 2026-04-29 22:43 | 47.64362 | 10.49131 | 35249 ft | 470 kts | 118° |
| 2026-04-29 22:44 | 47.61034 | 10.57475 | 35247 ft | 471 kts | 118° |
| 2026-04-29 22:44 | 47.57693 | 10.65830 | 35258 ft | 472 kts | 118° |
| 2026-04-29 22:45 | 47.54344 | 10.74182 | 35250 ft | 472 kts | 118° |
| 2026-04-29 22:45 | 47.50965 | 10.82573 | 35258 ft | 471 kts | 118° |
| 2026-04-29 22:46 | 47.47603 | 10.90906 | 35285 ft | 474 kts | 119° |
| 2026-04-29 22:46 | 47.44230 | 10.99243 | 35264 ft | 476 kts | 119° |
| 2026-04-29 22:47 | 47.40822 | 11.07632 | 35268 ft | 476 kts | 119° |
| 2026-04-29 22:47 | 47.37409 | 11.16008 | 35265 ft | 476 kts | 119° |
| 2026-04-29 22:48 | 47.33992 | 11.24371 | 35274 ft | 476 kts | 119° |
| 2026-04-29 22:48 | 47.30565 | 11.32736 | 35276 ft | 477 kts | 119° |
| 2026-04-29 22:49 | 47.27123 | 11.41104 | 35259 ft | 477 kts | 119° |
| 2026-04-29 22:49 | 47.23675 | 11.49466 | 35272 ft | 478 kts | 119° |
| 2026-04-29 22:50 | 47.20218 | 11.57824 | 35269 ft | 480 kts | 120° |
| 2026-04-29 22:50 | 47.16724 | 11.66249 | 35268 ft | 484 kts | 120° |
| 2026-04-29 22:51 | 47.13212 | 11.74683 | 35258 ft | 484 kts | 120° |
| 2026-04-29 22:51 | 47.08014 | 11.87401 | 35244 ft | 483 kts | 115° |
| 2026-04-29 22:52 | 47.05037 | 11.96232 | 35247 ft | 483 kts | 114° |
| 2026-04-29 22:52 | 47.02145 | 12.05107 | 35246 ft | 483 kts | 114° |
| 2026-04-29 22:53 | 46.99256 | 12.13988 | 35238 ft | 482 kts | 114° |
| 2026-04-29 22:53 | 46.96357 | 12.22841 | 35245 ft | 482 kts | 114° |
| 2026-04-29 22:54 | 46.93443 | 12.31687 | 35253 ft | 482 kts | 114° |
| 2026-04-29 22:54 | 46.90521 | 12.40534 | 35253 ft | 485 kts | 114° |
| 2026-04-29 22:55 | 46.87572 | 12.49419 | 35250 ft | 486 kts | 114° |
| 2026-04-29 22:55 | 46.84616 | 12.58292 | 35246 ft | 486 kts | 114° |
| 2026-04-29 22:56 | 46.81651 | 12.67164 | 35233 ft | 486 kts | 114° |
| 2026-04-29 22:56 | 46.78685 | 12.76017 | 35243 ft | 486 kts | 115° |
| 2026-04-29 22:57 | 46.75704 | 12.84879 | 35237 ft | 487 kts | 115° |
| 2026-04-29 22:57 | 46.72716 | 12.93737 | 35235 ft | 487 kts | 115° |
| 2026-04-29 22:58 | 46.69718 | 13.02591 | 35239 ft | 487 kts | 115° |
| 2026-04-29 22:58 | 46.66716 | 13.11419 | 35250 ft | 486 kts | 115° |
| 2026-04-29 22:59 | 46.63708 | 13.20250 | 35246 ft | 487 kts | 115° |
| 2026-04-29 22:59 | 46.60711 | 13.29017 | 35224 ft | 487 kts | 115° |
| 2026-04-29 23:00 | 46.57674 | 13.37869 | 35250 ft | 490 kts | 116° |
| 2026-04-29 23:00 | 46.54618 | 13.46744 | 35262 ft | 492 kts | 116° |
| 2026-04-29 23:01 | 46.51527 | 13.55688 | 35260 ft | 493 kts | 116° |
| 2026-04-29 23:01 | 46.48456 | 13.64508 | 35248 ft | 493 kts | 118° |
| 2026-04-29 23:02 | 46.45125 | 13.71256 | 35258 ft | 492 kts | 135° |
| 2026-04-29 23:02 | 46.40058 | 13.77891 | 35287 ft | 491 kts | 142° |
| 2026-04-29 23:03 | 46.34767 | 13.84169 | 35258 ft | 492 kts | 143° |
| 2026-04-29 23:03 | 46.29434 | 13.90407 | 35277 ft | 494 kts | 143° |
| 2026-04-29 23:04 | 46.24107 | 13.96677 | 35264 ft | 494 kts | 143° |
| 2026-04-29 23:04 | 46.18783 | 14.02960 | 35267 ft | 494 kts | 143° |
| 2026-04-29 23:05 | 46.13460 | 14.09238 | 35279 ft | 494 kts | 143° |
| 2026-04-29 23:05 | 46.08122 | 14.15521 | 35250 ft | 496 kts | 144° |
| 2026-04-29 23:06 | 46.02748 | 14.21825 | 35281 ft | 500 kts | 144° |
| 2026-04-29 23:06 | 45.97346 | 14.28147 | 35287 ft | 501 kts | 144° |
| 2026-04-29 23:07 | 45.91938 | 14.34459 | 35282 ft | 500 kts | 144° |
| 2026-04-29 23:07 | 45.86532 | 14.40750 | 35297 ft | 501 kts | 144° |
| 2026-04-29 23:08 | 45.81123 | 14.47028 | 35294 ft | 500 kts | 144° |
| 2026-04-29 23:08 | 45.75714 | 14.53292 | 35283 ft | 500 kts | 144° |
| 2026-04-29 23:09 | 45.70305 | 14.59540 | 35284 ft | 500 kts | 144° |
| 2026-04-29 23:09 | 45.64894 | 14.65775 | 35292 ft | 500 kts | 144° |
| 2026-04-29 23:10 | 45.59482 | 14.71994 | 35272 ft | 500 kts | 145° |
| 2026-04-29 23:10 | 45.54039 | 14.78228 | 35276 ft | 503 kts | 145° |
| 2026-04-29 23:11 | 45.48581 | 14.84465 | 35267 ft | 503 kts | 145° |
| 2026-04-29 23:11 | 45.43123 | 14.90699 | 35286 ft | 503 kts | 145° |
| 2026-04-29 23:12 | 45.37662 | 14.96929 | 35232 ft | 503 kts | 146° |
| 2026-04-29 23:12 | 45.32195 | 15.03147 | 35273 ft | 504 kts | 146° |
| 2026-04-29 23:13 | 45.26720 | 15.09363 | 35271 ft | 504 kts | 146° |
| 2026-04-29 23:13 | 45.21230 | 15.15578 | 35282 ft | 504 kts | 146° |
| 2026-04-29 23:14 | 45.15748 | 15.21764 | 35278 ft | 504 kts | 146° |
| 2026-04-29 23:14 | 45.10258 | 15.27941 | 35281 ft | 504 kts | 146° |
| 2026-04-29 23:15 | 45.04765 | 15.34106 | 35276 ft | 504 kts | 146° |
| 2026-04-29 23:15 | 44.99264 | 15.40266 | 35274 ft | 504 kts | 146° |
| 2026-04-29 23:16 | 44.93765 | 15.46412 | 35276 ft | 504 kts | 146° |
| 2026-04-29 23:16 | 44.88304 | 15.52500 | 35270 ft | 503 kts | 146° |
| 2026-04-29 23:17 | 44.82774 | 15.58648 | 35270 ft | 503 kts | 146° |
| 2026-04-29 23:17 | 44.77308 | 15.64709 | 35267 ft | 503 kts | 146° |
| 2026-04-29 23:18 | 44.71810 | 15.70794 | 35259 ft | 503 kts | 147° |
| 2026-04-29 23:18 | 44.66305 | 15.76867 | 35239 ft | 502 kts | 146° |
| 2026-04-29 23:19 | 44.60808 | 15.82916 | 35252 ft | 502 kts | 146° |
| 2026-04-29 23:19 | 44.55316 | 15.88946 | 35228 ft | 501 kts | 147° |
| 2026-04-29 23:20 | 44.49819 | 15.94963 | 35237 ft | 501 kts | 147° |
| 2026-04-29 23:20 | 44.44318 | 16.00966 | 35180 ft | 501 kts | 146° |
| 2026-04-29 23:21 | 44.38832 | 16.06953 | 35199 ft | 499 kts | 146° |
| 2026-04-29 23:21 | 44.33356 | 16.12915 | 35200 ft | 499 kts | 147° |
| 2026-04-29 23:22 | 44.27879 | 16.18855 | 35178 ft | 498 kts | 147° |
| 2026-04-29 23:22 | 44.22397 | 16.24786 | 35183 ft | 499 kts | 147° |
| 2026-04-29 23:23 | 44.16882 | 16.30739 | 35169 ft | 497 kts | 147° |
| 2026-04-29 23:23 | 44.11460 | 16.36580 | 35155 ft | 495 kts | 147° |
| 2026-04-29 23:24 | 44.06005 | 16.42440 | 35162 ft | 495 kts | 147° |
| 2026-04-29 23:24 | 44.00544 | 16.48290 | 35156 ft | 496 kts | 147° |
| 2026-04-29 23:25 | 43.95084 | 16.54126 | 35155 ft | 495 kts | 147° |
| 2026-04-29 23:25 | 43.89632 | 16.59943 | 35143 ft | 494 kts | 147° |
| 2026-04-29 23:26 | 43.84176 | 16.65748 | 35127 ft | 494 kts | 147° |
| 2026-04-29 23:26 | 43.78721 | 16.71537 | 35132 ft | 494 kts | 147° |
| 2026-04-29 23:27 | 43.73268 | 16.77311 | 35133 ft | 493 kts | 147° |
| 2026-04-29 23:27 | 43.67829 | 16.83062 | 35131 ft | 492 kts | 147° |
| 2026-04-29 23:28 | 43.62393 | 16.88792 | 35133 ft | 491 kts | 147° |
| 2026-04-29 23:28 | 43.56953 | 16.94512 | 35124 ft | 492 kts | 147° |
| 2026-04-29 23:29 | 43.51508 | 17.00223 | 35109 ft | 492 kts | 147° |
| 2026-04-29 23:29 | 43.46065 | 17.05919 | 35108 ft | 491 kts | 147° |
| 2026-04-29 23:30 | 43.40622 | 17.11605 | 35100 ft | 491 kts | 147° |
| 2026-04-29 23:30 | 43.35173 | 17.17283 | 35102 ft | 491 kts | 147° |
| 2026-04-29 23:31 | 43.29722 | 17.22946 | 35069 ft | 491 kts | 147° |
| 2026-04-29 23:31 | 43.24286 | 17.28586 | 35088 ft | 489 kts | 147° |
| 2026-04-29 23:32 | 43.18857 | 17.34205 | 35072 ft | 489 kts | 147° |
| 2026-04-29 23:32 | 43.13429 | 17.39809 | 35083 ft | 488 kts | 147° |
| 2026-04-29 23:33 | 43.07993 | 17.45407 | 35069 ft | 489 kts | 147° |
| 2026-04-29 23:33 | 43.02562 | 17.50987 | 35068 ft | 488 kts | 147° |
| 2026-04-29 23:34 | 42.97140 | 17.56547 | 35066 ft | 487 kts | 147° |
| 2026-04-29 23:34 | 42.91717 | 17.62098 | 35063 ft | 487 kts | 147° |
| 2026-04-29 23:35 | 42.86288 | 17.67638 | 35061 ft | 487 kts | 147° |
| 2026-04-29 23:35 | 42.80861 | 17.73165 | 35058 ft | 486 kts | 147° |
| 2026-04-29 23:36 | 42.75442 | 17.78672 | 35059 ft | 485 kts | 147° |
| 2026-04-29 23:36 | 42.70035 | 17.84153 | 35060 ft | 485 kts | 147° |
| 2026-04-29 23:37 | 42.64620 | 17.89630 | 35059 ft | 485 kts | 147° |
| 2026-04-29 23:37 | 42.59204 | 17.95097 | 35050 ft | 485 kts | 147° |
| 2026-04-29 23:38 | 42.53797 | 18.00544 | 35065 ft | 484 kts | 147° |
| 2026-04-29 23:38 | 42.48383 | 18.05985 | 35067 ft | 484 kts | 147° |
| 2026-04-29 23:39 | 42.42977 | 18.11406 | 35066 ft | 484 kts | 147° |
| 2026-04-29 23:39 | 42.37562 | 18.16823 | 35065 ft | 484 kts | 147° |
| 2026-04-29 23:40 | 42.32154 | 18.22222 | 35059 ft | 483 kts | 147° |
| 2026-04-29 23:40 | 42.27657 | 18.26703 | 35055 ft | 483 kts | 147° |
| 2026-04-29 23:41 | 42.22246 | 18.32083 | 35050 ft | 483 kts | 147° |
| 2026-04-29 23:41 | 42.16825 | 18.37462 | 35045 ft | 483 kts | 147° |
| 2026-04-29 23:42 | 42.11417 | 18.42816 | 35046 ft | 482 kts | 147° |
| 2026-04-29 23:42 | 42.06008 | 18.48160 | 35049 ft | 482 kts | 147° |
| 2026-04-29 23:43 | 42.00612 | 18.53501 | 35051 ft | 482 kts | 147° |
| 2026-04-29 23:43 | 41.95287 | 18.58995 | 35052 ft | 482 kts | 146° |
| 2026-04-29 23:44 | 41.89996 | 18.64534 | 35051 ft | 482 kts | 146° |
| 2026-04-29 23:44 | 41.84696 | 18.70056 | 35053 ft | 482 kts | 146° |
| 2026-04-29 23:45 | 41.79394 | 18.75549 | 35057 ft | 482 kts | 146° |
| 2026-04-29 23:45 | 41.74087 | 18.81026 | 35055 ft | 481 kts | 146° |
| 2026-04-29 23:46 | 41.68778 | 18.86493 | 35055 ft | 481 kts | 146° |
| 2026-04-29 23:46 | 41.63466 | 18.91951 | 35040 ft | 481 kts | 146° |
| 2026-04-29 23:47 | 41.58153 | 18.97400 | 35053 ft | 482 kts | 146° |
| 2026-04-29 23:47 | 41.52830 | 19.02849 | 35054 ft | 482 kts | 146° |
| 2026-04-29 23:48 | 41.47505 | 19.08287 | 35057 ft | 482 kts | 146° |
| 2026-04-29 23:48 | 41.42248 | 19.13848 | 35062 ft | 483 kts | 144° |
| 2026-04-29 23:49 | 41.37090 | 19.19591 | 35064 ft | 483 kts | 143° |
| 2026-04-29 23:49 | 41.31944 | 19.25332 | 35065 ft | 482 kts | 143° |
| 2026-04-29 23:50 | 41.26784 | 19.31040 | 35065 ft | 482 kts | 143° |
| 2026-04-29 23:51 | 41.19138 | 19.39442 | 35066 ft | 482 kts | 144° |
| 2026-04-29 23:51 | 41.13967 | 19.45107 | 35064 ft | 482 kts | 144° |
| 2026-04-29 23:52 | 41.08792 | 19.50765 | 35060 ft | 482 kts | 144° |
| 2026-04-29 23:52 | 41.03618 | 19.56412 | 35062 ft | 482 kts | 144° |
| 2026-04-29 23:53 | 40.98440 | 19.62050 | 35064 ft | 482 kts | 144° |
| 2026-04-29 23:53 | 40.93262 | 19.67677 | 35062 ft | 482 kts | 144° |
| 2026-04-29 23:54 | 40.88081 | 19.73296 | 35057 ft | 481 kts | 144° |
| 2026-04-29 23:54 | 40.82899 | 19.78902 | 35062 ft | 481 kts | 144° |
| 2026-04-29 23:55 | 40.77723 | 19.84494 | 35071 ft | 481 kts | 143° |
| 2026-04-29 23:55 | 40.72546 | 19.90072 | 35071 ft | 480 kts | 143° |
| 2026-04-29 23:56 | 40.67370 | 19.95638 | 35075 ft | 480 kts | 144° |
| 2026-04-29 23:56 | 40.62195 | 20.01191 | 35071 ft | 480 kts | 143° |
| 2026-04-29 23:57 | 40.57022 | 20.06732 | 35081 ft | 479 kts | 143° |
| 2026-04-29 23:57 | 40.51845 | 20.12266 | 35088 ft | 479 kts | 144° |
| 2026-04-29 23:58 | 40.46670 | 20.17787 | 35097 ft | 479 kts | 144° |
| 2026-04-29 23:58 | 40.41492 | 20.23296 | 35103 ft | 479 kts | 144° |
| 2026-04-29 23:59 | 40.36317 | 20.28793 | 35097 ft | 478 kts | 144° |
| 2026-04-29 23:59 | 40.31142 | 20.34280 | 35109 ft | 479 kts | 144° |
| 2026-04-30 00:00 | 40.25966 | 20.39756 | 35107 ft | 479 kts | 144° |
| 2026-04-30 00:00 | 40.20779 | 20.45233 | 35107 ft | 479 kts | 144° |
| 2026-04-30 00:01 | 40.15593 | 20.50697 | 35112 ft | 478 kts | 144° |
| 2026-04-30 00:01 | 40.10411 | 20.56147 | 35106 ft | 478 kts | 144° |
| 2026-04-30 00:02 | 40.04953 | 20.61007 | 35112 ft | 473 kts | 154° |
| 2026-04-30 00:02 | 39.99230 | 20.65118 | 35107 ft | 473 kts | 155° |
| 2026-04-30 00:03 | 39.93419 | 20.69122 | 35113 ft | 472 kts | 156° |
| 2026-04-30 00:03 | 39.87602 | 20.73117 | 35098 ft | 472 kts | 155° |
| 2026-04-30 00:04 | 39.81791 | 20.77121 | 35134 ft | 473 kts | 155° |
| 2026-04-30 00:04 | 39.75943 | 20.81156 | 35127 ft | 473 kts | 156° |
| 2026-04-30 00:05 | 39.70142 | 20.85154 | 35131 ft | 471 kts | 156° |
| 2026-04-30 00:05 | 39.64395 | 20.89105 | 35135 ft | 470 kts | 156° |
| 2026-04-30 00:06 | 39.58606 | 20.93074 | 35126 ft | 470 kts | 156° |
| 2026-04-30 00:06 | 39.52780 | 20.97062 | 35125 ft | 471 kts | 156° |
| 2026-04-30 00:07 | 39.46990 | 21.01019 | 35123 ft | 470 kts | 156° |
| 2026-04-30 00:07 | 39.41195 | 21.04977 | 35122 ft | 470 kts | 156° |
| 2026-04-30 00:08 | 39.35405 | 21.08918 | 35119 ft | 471 kts | 155° |
| 2026-04-30 00:08 | 39.29605 | 21.12857 | 35118 ft | 471 kts | 155° |
| 2026-04-30 00:09 | 39.23797 | 21.16796 | 35123 ft | 471 kts | 156° |
| 2026-04-30 00:09 | 39.18005 | 21.20717 | 35123 ft | 470 kts | 156° |
| 2026-04-30 00:10 | 39.12210 | 21.24633 | 35116 ft | 470 kts | 156° |
| 2026-04-30 00:10 | 39.06405 | 21.28549 | 35120 ft | 471 kts | 156° |
| 2026-04-30 00:11 | 39.00599 | 21.32458 | 35125 ft | 471 kts | 156° |
| 2026-04-30 00:11 | 38.94791 | 21.36360 | 35118 ft | 471 kts | 156° |
| 2026-04-30 00:12 | 38.88981 | 21.40257 | 35096 ft | 471 kts | 156° |
| 2026-04-30 00:12 | 38.83168 | 21.44148 | 35117 ft | 472 kts | 156° |
| 2026-04-30 00:13 | 38.77347 | 21.48037 | 35119 ft | 472 kts | 156° |
| 2026-04-30 00:13 | 38.71522 | 21.51922 | 35118 ft | 472 kts | 156° |
| 2026-04-30 00:14 | 38.65736 | 21.55774 | 35115 ft | 472 kts | 156° |
| 2026-04-30 00:14 | 38.59912 | 21.59643 | 35112 ft | 472 kts | 156° |
| 2026-04-30 00:15 | 38.54083 | 21.63508 | 35114 ft | 472 kts | 156° |
| 2026-04-30 00:15 | 38.48258 | 21.67365 | 35111 ft | 472 kts | 156° |
| 2026-04-30 00:16 | 38.42432 | 21.71217 | 35111 ft | 472 kts | 156° |
| 2026-04-30 00:16 | 38.36604 | 21.75061 | 35105 ft | 472 kts | 156° |
| 2026-04-30 00:17 | 38.30765 | 21.78904 | 35109 ft | 473 kts | 156° |
| 2026-04-30 00:17 | 38.24884 | 21.82769 | 35108 ft | 472 kts | 156° |
| 2026-04-30 00:18 | 38.19080 | 21.86574 | 35112 ft | 472 kts | 156° |
| 2026-04-30 00:18 | 38.13244 | 21.90396 | 35105 ft | 472 kts | 156° |
| 2026-04-30 00:19 | 38.08338 | 21.93605 | 35119 ft | 474 kts | 156° |
| 2026-04-30 00:19 | 38.01518 | 21.98059 | 35118 ft | 474 kts | 156° |
| 2026-04-30 00:20 | 37.96600 | 22.01261 | 35118 ft | 474 kts | 156° |
| 2026-04-30 00:20 | 37.90729 | 22.05079 | 35119 ft | 474 kts | 156° |
| 2026-04-30 00:21 | 37.84846 | 22.08894 | 35130 ft | 476 kts | 156° |
| 2026-04-30 00:21 | 37.78947 | 22.12717 | 35134 ft | 477 kts | 156° |
| 2026-04-30 00:22 | 37.73045 | 22.16538 | 35129 ft | 476 kts | 156° |
| 2026-04-30 00:22 | 37.67146 | 22.20350 | 35137 ft | 477 kts | 156° |
| 2026-04-30 00:23 | 37.61237 | 22.24158 | 35138 ft | 478 kts | 156° |
| 2026-04-30 00:23 | 37.55306 | 22.27970 | 35135 ft | 479 kts | 156° |
| 2026-04-30 00:24 | 37.49371 | 22.31782 | 35130 ft | 479 kts | 156° |
| 2026-04-30 00:24 | 37.43435 | 22.35588 | 35127 ft | 479 kts | 156° |
| 2026-04-30 00:25 | 37.37498 | 22.39386 | 35117 ft | 479 kts | 157° |
| 2026-04-30 00:25 | 37.31540 | 22.43191 | 35124 ft | 481 kts | 157° |
| 2026-04-30 00:26 | 37.25575 | 22.46994 | 35114 ft | 481 kts | 157° |
| 2026-04-30 00:26 | 37.19601 | 22.50797 | 35111 ft | 482 kts | 157° |
| 2026-04-30 00:27 | 37.13620 | 22.54597 | 35092 ft | 482 kts | 157° |
| 2026-04-30 00:27 | 37.07629 | 22.58396 | 35105 ft | 483 kts | 157° |
| 2026-04-30 00:28 | 37.01636 | 22.62190 | 35098 ft | 483 kts | 157° |
| 2026-04-30 00:28 | 36.95646 | 22.65974 | 35094 ft | 482 kts | 157° |
| 2026-04-30 00:29 | 36.89687 | 22.69733 | 35089 ft | 483 kts | 157° |
| 2026-04-30 00:29 | 36.83695 | 22.73507 | 35078 ft | 482 kts | 157° |
| 2026-04-30 00:30 | 36.77665 | 22.77298 | 35076 ft | 482 kts | 157° |
| 2026-04-30 00:30 | 36.71674 | 22.81057 | 35078 ft | 482 kts | 157° |
| 2026-04-30 00:31 | 36.65715 | 22.84789 | 35075 ft | 482 kts | 157° |
| 2026-04-30 00:31 | 36.59678 | 22.88564 | 35075 ft | 482 kts | 158° |
| 2026-04-30 00:32 | 36.53675 | 22.92311 | 35074 ft | 483 kts | 158° |
| 2026-04-30 00:32 | 36.47711 | 22.96026 | 35065 ft | 483 kts | 158° |
| 2026-04-30 00:33 | 36.41707 | 22.99761 | 35068 ft | 483 kts | 158° |
| 2026-04-30 00:33 | 36.35697 | 23.03493 | 35069 ft | 483 kts | 158° |
| 2026-04-30 00:34 | 36.29684 | 23.07220 | 35070 ft | 483 kts | 158° |
| 2026-04-30 00:34 | 36.23664 | 23.10945 | 35073 ft | 484 kts | 158° |
| 2026-04-30 00:35 | 36.17641 | 23.14665 | 35067 ft | 484 kts | 158° |
| 2026-04-30 00:35 | 36.11606 | 23.18387 | 35067 ft | 484 kts | 158° |
| 2026-04-30 00:36 | 36.05576 | 23.22099 | 35064 ft | 484 kts | 158° |
| 2026-04-30 00:36 | 35.99542 | 23.25807 | 35075 ft | 484 kts | 158° |
| 2026-04-30 00:37 | 35.93511 | 23.29506 | 35074 ft | 484 kts | 158° |
| 2026-04-30 00:37 | 35.87474 | 23.33204 | 35079 ft | 484 kts | 158° |
| 2026-04-30 00:38 | 35.81440 | 23.36893 | 35068 ft | 485 kts | 159° |
| 2026-04-30 00:38 | 35.75389 | 23.40585 | 35077 ft | 486 kts | 159° |
| 2026-04-30 00:39 | 35.69332 | 23.44276 | 35075 ft | 486 kts | 159° |
| 2026-04-30 00:39 | 35.63264 | 23.47966 | 35075 ft | 487 kts | 159° |
| 2026-04-30 00:40 | 35.57192 | 23.51654 | 35067 ft | 487 kts | 159° |
| 2026-04-30 00:40 | 35.51111 | 23.55339 | 35081 ft | 488 kts | 159° |
| 2026-04-30 00:41 | 35.45016 | 23.59028 | 35081 ft | 489 kts | 159° |
| 2026-04-30 00:41 | 35.38920 | 23.62717 | 35079 ft | 488 kts | 159° |
| 2026-04-30 00:42 | 35.32829 | 23.66390 | 35084 ft | 488 kts | 159° |
| 2026-04-30 00:42 | 35.26729 | 23.70043 | 35076 ft | 489 kts | 159° |
| 2026-04-30 00:43 | 35.20623 | 23.73716 | 35083 ft | 489 kts | 159° |
| 2026-04-30 00:43 | 35.14514 | 23.77389 | 35083 ft | 490 kts | 159° |
| 2026-04-30 00:44 | 35.08394 | 23.81058 | 35073 ft | 490 kts | 159° |
| 2026-04-30 00:44 | 35.02263 | 23.84726 | 35061 ft | 490 kts | 159° |
| 2026-04-30 00:45 | 34.96141 | 23.88381 | 35063 ft | 490 kts | 159° |
| 2026-04-30 00:45 | 34.90016 | 23.92031 | 35063 ft | 490 kts | 160° |
| 2026-04-30 00:46 | 34.83889 | 23.95677 | 35076 ft | 490 kts | 160° |
| 2026-04-30 00:46 | 34.77765 | 23.99315 | 35076 ft | 490 kts | 160° |
| 2026-04-30 00:47 | 34.71636 | 24.02950 | 35072 ft | 490 kts | 160° |
| 2026-04-30 00:47 | 34.65503 | 24.06581 | 35072 ft | 490 kts | 160° |
| 2026-04-30 00:48 | 34.59407 | 24.10184 | 35074 ft | 491 kts | 160° |
| 2026-04-30 00:48 | 34.53260 | 24.13811 | 35073 ft | 491 kts | 160° |
| 2026-04-30 00:49 | 34.47116 | 24.17431 | 35066 ft | 491 kts | 160° |
| 2026-04-30 00:49 | 34.40976 | 24.21043 | 35071 ft | 490 kts | 160° |
| 2026-04-30 00:50 | 34.34834 | 24.24650 | 35068 ft | 490 kts | 160° |
| 2026-04-30 00:50 | 34.28694 | 24.28249 | 35072 ft | 490 kts | 160° |
| 2026-04-30 00:51 | 34.22553 | 24.31844 | 35051 ft | 490 kts | 160° |
| 2026-04-30 00:51 | 34.16417 | 24.35429 | 35072 ft | 490 kts | 160° |
| 2026-04-30 00:52 | 34.10282 | 24.39008 | 35079 ft | 490 kts | 160° |
| 2026-04-30 00:52 | 34.04138 | 24.42586 | 35073 ft | 490 kts | 160° |
| 2026-04-30 00:53 | 33.98306 | 24.46950 | 35076 ft | 500 kts | 145° |
| 2026-04-30 00:53 | 33.93002 | 24.52399 | 35066 ft | 501 kts | 142° |
| 2026-04-30 00:54 | 33.87819 | 24.58019 | 35074 ft | 502 kts | 141° |
| 2026-04-30 00:54 | 33.82638 | 24.63645 | 35075 ft | 501 kts | 141° |
| 2026-04-30 00:55 | 33.77436 | 24.69244 | 35069 ft | 501 kts | 142° |
| 2026-04-30 00:55 | 33.69623 | 24.77600 | 35070 ft | 501 kts | 142° |
| 2026-04-30 00:56 | 33.64411 | 24.83159 | 35070 ft | 501 kts | 142° |
| 2026-04-30 00:56 | 33.59201 | 24.88709 | 35068 ft | 501 kts | 142° |
| 2026-04-30 00:57 | 33.53992 | 24.94250 | 35072 ft | 500 kts | 142° |
| 2026-04-30 00:57 | 33.48779 | 24.99783 | 35073 ft | 500 kts | 142° |
| 2026-04-30 00:58 | 33.43567 | 25.05309 | 35071 ft | 500 kts | 142° |
| 2026-04-30 00:58 | 33.38387 | 25.10790 | 35070 ft | 500 kts | 142° |
| 2026-04-30 00:59 | 33.33171 | 25.16300 | 35071 ft | 500 kts | 142° |
| 2026-04-30 00:59 | 33.27945 | 25.21813 | 35071 ft | 500 kts | 142° |
| 2026-04-30 01:00 | 33.23610 | 25.26378 | 35071 ft | 500 kts | 142° |
| 2026-04-30 01:00 | 33.18386 | 25.31871 | 35076 ft | 501 kts | 142° |
| 2026-04-30 01:01 | 33.13155 | 25.37362 | 35074 ft | 501 kts | 142° |
| 2026-04-30 01:01 | 33.07924 | 25.42844 | 35072 ft | 500 kts | 142° |
| 2026-04-30 01:02 | 33.02692 | 25.48319 | 35072 ft | 500 kts | 142° |
| 2026-04-30 01:02 | 32.97459 | 25.53785 | 35072 ft | 500 kts | 142° |
| 2026-04-30 01:03 | 32.92235 | 25.59234 | 35075 ft | 499 kts | 142° |
| 2026-04-30 01:03 | 32.87007 | 25.64677 | 35072 ft | 499 kts | 142° |
| 2026-04-30 01:04 | 32.81779 | 25.70111 | 35072 ft | 499 kts | 142° |
| 2026-04-30 01:04 | 32.76544 | 25.75544 | 35072 ft | 499 kts | 142° |
| 2026-04-30 01:05 | 32.71309 | 25.80969 | 35072 ft | 499 kts | 142° |
| 2026-04-30 01:05 | 32.66067 | 25.86391 | 35072 ft | 500 kts | 142° |
| 2026-04-30 01:06 | 32.60817 | 25.91812 | 35074 ft | 500 kts | 142° |
| 2026-04-30 01:06 | 32.55566 | 25.97227 | 35075 ft | 500 kts | 142° |
| 2026-04-30 01:07 | 32.50305 | 26.02643 | 35076 ft | 501 kts | 142° |
| 2026-04-30 01:07 | 32.45039 | 26.08055 | 35077 ft | 501 kts | 142° |
| 2026-04-30 01:08 | 32.39775 | 26.13457 | 35078 ft | 501 kts | 142° |
| 2026-04-30 01:08 | 32.34495 | 26.18865 | 35075 ft | 504 kts | 143° |
| 2026-04-30 01:09 | 32.29182 | 26.24299 | 35075 ft | 505 kts | 143° |
| 2026-04-30 01:09 | 32.23864 | 26.29730 | 35082 ft | 506 kts | 143° |
| 2026-04-30 01:10 | 32.18537 | 26.35162 | 35078 ft | 506 kts | 143° |
| 2026-04-30 01:10 | 32.13207 | 26.40588 | 35075 ft | 506 kts | 143° |
| 2026-04-30 01:11 | 32.07876 | 26.46006 | 35076 ft | 506 kts | 143° |
| 2026-04-30 01:11 | 32.02529 | 26.51430 | 35082 ft | 509 kts | 143° |
| 2026-04-30 01:12 | 31.97151 | 26.56877 | 35074 ft | 510 kts | 143° |
| 2026-04-30 01:12 | 31.91765 | 26.62326 | 35073 ft | 511 kts | 143° |
| 2026-04-30 01:13 | 31.86376 | 26.67769 | 35076 ft | 510 kts | 143° |
| 2026-04-30 01:13 | 31.80986 | 26.73204 | 35072 ft | 510 kts | 143° |
| 2026-04-30 01:14 | 31.75594 | 26.78631 | 35072 ft | 510 kts | 143° |
| 2026-04-30 01:14 | 31.70189 | 26.84062 | 35080 ft | 512 kts | 143° |
| 2026-04-30 01:15 | 31.64770 | 26.89498 | 35083 ft | 513 kts | 143° |
| 2026-04-30 01:15 | 31.59346 | 26.94933 | 35083 ft | 513 kts | 143° |
| 2026-04-30 01:16 | 31.53916 | 27.00364 | 35083 ft | 513 kts | 143° |
| 2026-04-30 01:16 | 31.48485 | 27.05788 | 35085 ft | 513 kts | 144° |
| 2026-04-30 01:17 | 31.43048 | 27.11209 | 35058 ft | 513 kts | 144° |
| 2026-04-30 01:17 | 31.37611 | 27.16621 | 35090 ft | 513 kts | 144° |
| 2026-04-30 01:18 | 31.32049 | 27.21810 | 35071 ft | 507 kts | 153° |
| 2026-04-30 01:18 | 31.25894 | 27.25594 | 35074 ft | 502 kts | 160° |
| 2026-04-30 01:19 | 31.19578 | 27.29045 | 35077 ft | 501 kts | 162° |
| 2026-04-30 01:19 | 31.13243 | 27.32429 | 35055 ft | 500 kts | 162° |
| 2026-04-30 01:20 | 31.06919 | 27.35824 | 35083 ft | 500 kts | 161° |
| 2026-04-30 01:20 | 31.00600 | 27.39234 | 35091 ft | 500 kts | 161° |
| 2026-04-30 01:21 | 30.94315 | 27.42745 | 35086 ft | 505 kts | 155° |
| 2026-04-30 01:21 | 30.88551 | 27.47536 | 35088 ft | 511 kts | 147° |
| 2026-04-30 01:22 | 30.82969 | 27.52681 | 35071 ft | 512 kts | 145° |
| 2026-04-30 01:22 | 30.77427 | 27.57874 | 35091 ft | 511 kts | 145° |
| 2026-04-30 01:23 | 30.71882 | 27.63037 | 35088 ft | 511 kts | 145° |
| 2026-04-30 01:23 | 30.66321 | 27.68180 | 35088 ft | 510 kts | 145° |
| 2026-04-30 01:24 | 30.60755 | 27.73310 | 35084 ft | 510 kts | 146° |
| 2026-04-30 01:24 | 30.55183 | 27.78437 | 35083 ft | 510 kts | 146° |
| 2026-04-30 01:25 | 30.49620 | 27.83551 | 35073 ft | 510 kts | 145° |
| 2026-04-30 01:25 | 30.44064 | 27.88651 | 35077 ft | 509 kts | 145° |
| 2026-04-30 01:26 | 30.38507 | 27.93744 | 35068 ft | 509 kts | 146° |
| 2026-04-30 01:26 | 30.32953 | 27.98833 | 35078 ft | 509 kts | 146° |
| 2026-04-30 01:27 | 30.27393 | 28.03911 | 35078 ft | 509 kts | 146° |
| 2026-04-30 01:27 | 30.21832 | 28.08982 | 35074 ft | 509 kts | 145° |
| 2026-04-30 01:28 | 30.16261 | 28.14056 | 35079 ft | 510 kts | 145° |
| 2026-04-30 01:28 | 30.10689 | 28.19125 | 35072 ft | 510 kts | 145° |
| 2026-04-30 01:29 | 30.05111 | 28.24193 | 35069 ft | 510 kts | 145° |
| 2026-04-30 01:29 | 29.99534 | 28.29252 | 35070 ft | 510 kts | 146° |
| 2026-04-30 01:30 | 29.93956 | 28.34304 | 35073 ft | 510 kts | 146° |
| 2026-04-30 01:30 | 29.88387 | 28.39369 | 35045 ft | 510 kts | 142° |
| 2026-04-30 01:31 | 29.83577 | 28.45403 | 35068 ft | 512 kts | 130° |
| 2026-04-30 01:31 | 29.79177 | 28.51863 | 35068 ft | 513 kts | 129° |
| 2026-04-30 01:32 | 29.74852 | 28.58390 | 35066 ft | 513 kts | 129° |
| 2026-04-30 01:32 | 29.70512 | 28.64909 | 35066 ft | 513 kts | 129° |
| 2026-04-30 01:33 | 29.66159 | 28.71400 | 35068 ft | 512 kts | 129° |
| 2026-04-30 01:33 | 29.61806 | 28.77868 | 35067 ft | 511 kts | 129° |
| 2026-04-30 01:34 | 29.57454 | 28.84323 | 35063 ft | 511 kts | 129° |
| 2026-04-30 01:34 | 29.53127 | 28.90734 | 35064 ft | 511 kts | 129° |
| 2026-04-30 01:35 | 29.48764 | 28.97188 | 35053 ft | 511 kts | 129° |
| 2026-04-30 01:35 | 29.44415 | 29.03612 | 35061 ft | 509 kts | 129° |
| 2026-04-30 01:36 | 29.39712 | 29.09637 | 35062 ft | 506 kts | 138° |
| 2026-04-30 01:36 | 29.34591 | 29.15171 | 35072 ft | 506 kts | 140° |
| 2026-04-30 01:37 | 29.29401 | 29.20610 | 35065 ft | 506 kts | 140° |
| 2026-04-30 01:37 | 29.24201 | 29.26045 | 35073 ft | 506 kts | 140° |
| 2026-04-30 01:38 | 29.19022 | 29.31473 | 35066 ft | 505 kts | 140° |
| 2026-04-30 01:38 | 29.13848 | 29.36900 | 35060 ft | 504 kts | 140° |
| 2026-04-30 01:39 | 29.08692 | 29.42302 | 35072 ft | 502 kts | 140° |
| 2026-04-30 01:39 | 29.03546 | 29.47684 | 35060 ft | 501 kts | 140° |
| 2026-04-30 01:40 | 28.98389 | 29.53068 | 35078 ft | 501 kts | 140° |
| 2026-04-30 01:40 | 28.93244 | 29.58434 | 35071 ft | 499 kts | 141° |
| 2026-04-30 01:41 | 28.88989 | 29.62868 | 35077 ft | 498 kts | 141° |
| 2026-04-30 01:41 | 28.83868 | 29.68194 | 35062 ft | 498 kts | 141° |
| 2026-04-30 01:42 | 28.78749 | 29.73511 | 35066 ft | 498 kts | 141° |
| 2026-04-30 01:42 | 28.73630 | 29.78822 | 35072 ft | 497 kts | 141° |
| 2026-04-30 01:43 | 28.68509 | 29.84127 | 35072 ft | 497 kts | 141° |
| 2026-04-30 01:43 | 28.63397 | 29.89414 | 35069 ft | 496 kts | 141° |
| 2026-04-30 01:44 | 28.58285 | 29.94696 | 35073 ft | 496 kts | 141° |
| 2026-04-30 01:44 | 28.53174 | 29.99968 | 35073 ft | 496 kts | 141° |
| 2026-04-30 01:45 | 28.48058 | 30.05238 | 35070 ft | 496 kts | 142° |
| 2026-04-30 01:45 | 28.42941 | 30.10503 | 35068 ft | 496 kts | 142° |
| 2026-04-30 01:46 | 28.37827 | 30.15759 | 35069 ft | 495 kts | 142° |
| 2026-04-30 01:46 | 28.32722 | 30.20996 | 35069 ft | 495 kts | 142° |
| 2026-04-30 01:47 | 28.27617 | 30.26227 | 35072 ft | 495 kts | 142° |
| 2026-04-30 01:47 | 28.22509 | 30.31454 | 35072 ft | 495 kts | 142° |
| 2026-04-30 01:48 | 28.17396 | 30.36678 | 35075 ft | 495 kts | 142° |
| 2026-04-30 01:48 | 28.12284 | 30.41894 | 35056 ft | 494 kts | 142° |
| 2026-04-30 01:49 | 28.07181 | 30.47095 | 35069 ft | 494 kts | 142° |
| 2026-04-30 01:49 | 28.02070 | 30.52295 | 35070 ft | 494 kts | 142° |
| 2026-04-30 01:50 | 27.96990 | 30.57457 | 35072 ft | 494 kts | 142° |
| 2026-04-30 01:50 | 27.91878 | 30.62646 | 35072 ft | 494 kts | 142° |
| 2026-04-30 01:51 | 27.86766 | 30.67828 | 35069 ft | 494 kts | 142° |
| 2026-04-30 01:51 | 27.81652 | 30.73006 | 35069 ft | 494 kts | 142° |
| 2026-04-30 01:52 | 27.76537 | 30.78178 | 35066 ft | 494 kts | 142° |
| 2026-04-30 01:52 | 27.71412 | 30.83353 | 35069 ft | 494 kts | 142° |
| 2026-04-30 01:53 | 27.66283 | 30.88526 | 35069 ft | 494 kts | 142° |
| 2026-04-30 01:53 | 27.61151 | 30.93694 | 35070 ft | 495 kts | 142° |
| 2026-04-30 01:54 | 27.56018 | 30.98857 | 35066 ft | 494 kts | 142° |
| 2026-04-30 01:54 | 27.50894 | 31.04004 | 35067 ft | 493 kts | 142° |
| 2026-04-30 01:55 | 27.45769 | 31.09145 | 35064 ft | 493 kts | 142° |
| 2026-04-30 01:55 | 27.40644 | 31.14281 | 35068 ft | 494 kts | 143° |
| 2026-04-30 01:56 | 27.35507 | 31.19418 | 35064 ft | 494 kts | 143° |
| 2026-04-30 01:56 | 27.30371 | 31.24551 | 35072 ft | 494 kts | 143° |
| 2026-04-30 01:57 | 27.25231 | 31.29681 | 35068 ft | 493 kts | 143° |
| 2026-04-30 01:57 | 27.20100 | 31.34796 | 35068 ft | 493 kts | 143° |
| 2026-04-30 01:58 | 27.14967 | 31.39905 | 35063 ft | 493 kts | 143° |
| 2026-04-30 01:58 | 27.09834 | 31.45007 | 35038 ft | 493 kts | 143° |
| 2026-04-30 01:59 | 27.02128 | 31.52655 | 35053 ft | 494 kts | 143° |
| 2026-04-30 02:00 | 26.96986 | 31.57750 | 35053 ft | 493 kts | 143° |
| 2026-04-30 02:00 | 26.91848 | 31.62832 | 35053 ft | 493 kts | 143° |
| 2026-04-30 02:01 | 26.86705 | 31.67916 | 35048 ft | 493 kts | 143° |
| 2026-04-30 02:01 | 26.81565 | 31.72993 | 35041 ft | 492 kts | 143° |
| 2026-04-30 02:02 | 26.76425 | 31.78061 | 35038 ft | 492 kts | 144° |
| 2026-04-30 02:02 | 26.71281 | 31.83127 | 35037 ft | 492 kts | 144° |
| 2026-04-30 02:03 | 26.66139 | 31.88184 | 35029 ft | 492 kts | 144° |
| 2026-04-30 02:03 | 26.60994 | 31.93238 | 35028 ft | 492 kts | 144° |
| 2026-04-30 02:04 | 26.55855 | 31.98280 | 35021 ft | 492 kts | 144° |
| 2026-04-30 02:04 | 26.50706 | 32.03326 | 35020 ft | 492 kts | 144° |
| 2026-04-30 02:05 | 26.45557 | 32.08364 | 35012 ft | 492 kts | 144° |
| 2026-04-30 02:05 | 26.40405 | 32.13399 | 35005 ft | 493 kts | 144° |
| 2026-04-30 02:06 | 26.35234 | 32.18444 | 35010 ft | 495 kts | 144° |
| 2026-04-30 02:06 | 26.30054 | 32.23494 | 35003 ft | 494 kts | 144° |
| 2026-04-30 02:07 | 26.24882 | 32.28537 | 34998 ft | 494 kts | 144° |
| 2026-04-30 02:07 | 26.19696 | 32.33574 | 34997 ft | 495 kts | 144° |
| 2026-04-30 02:08 | 26.14503 | 32.38613 | 34987 ft | 495 kts | 144° |
| 2026-04-30 02:08 | 26.09352 | 32.43617 | 34980 ft | 495 kts | 145° |
| 2026-04-30 02:09 | 26.04131 | 32.48680 | 34979 ft | 495 kts | 145° |
| 2026-04-30 02:09 | 25.98925 | 32.53718 | 34971 ft | 496 kts | 145° |
| 2026-04-30 02:10 | 25.93719 | 32.58750 | 34960 ft | 496 kts | 145° |
| 2026-04-30 02:10 | 25.88509 | 32.63777 | 34947 ft | 496 kts | 146° |
| 2026-04-30 02:11 | 25.83304 | 32.68795 | 34944 ft | 496 kts | 146° |
| 2026-04-30 02:11 | 25.78100 | 32.73811 | 34940 ft | 495 kts | 146° |
| 2026-04-30 02:12 | 25.73420 | 32.79523 | 34945 ft | 507 kts | 131° |
| 2026-04-30 02:12 | 25.69404 | 32.85981 | 34949 ft | 511 kts | 128° |
| 2026-04-30 02:13 | 25.65503 | 32.92579 | 34955 ft | 513 kts | 128° |
| 2026-04-30 02:13 | 25.61591 | 32.99198 | 34952 ft | 514 kts | 128° |
| 2026-04-30 02:14 | 25.57656 | 33.05798 | 34959 ft | 513 kts | 128° |
| 2026-04-30 02:14 | 25.53709 | 33.12386 | 34958 ft | 513 kts | 129° |
| 2026-04-30 02:15 | 25.49757 | 33.18969 | 34955 ft | 513 kts | 129° |
| 2026-04-30 02:15 | 25.45802 | 33.25550 | 34963 ft | 513 kts | 129° |
| 2026-04-30 02:16 | 25.41845 | 33.32122 | 34962 ft | 513 kts | 129° |
| 2026-04-30 02:16 | 25.37886 | 33.38689 | 34966 ft | 513 kts | 129° |
| 2026-04-30 02:17 | 25.33927 | 33.45253 | 34962 ft | 513 kts | 129° |
| 2026-04-30 02:17 | 25.29988 | 33.51772 | 34967 ft | 513 kts | 129° |
| 2026-04-30 02:18 | 25.25992 | 33.58373 | 34958 ft | 514 kts | 129° |
| 2026-04-30 02:18 | 25.22034 | 33.64903 | 34967 ft | 515 kts | 129° |
| 2026-04-30 02:19 | 25.18045 | 33.71479 | 34968 ft | 516 kts | 129° |
| 2026-04-30 02:19 | 25.14050 | 33.78056 | 34970 ft | 515 kts | 129° |
| 2026-04-30 02:20 | 25.10112 | 33.84541 | 34968 ft | 504 kts | 130° |
| 2026-04-30 02:20 | 25.06216 | 33.90939 | 34970 ft | 502 kts | 130° |
| 2026-04-30 02:21 | 25.02319 | 33.97321 | 34961 ft | 501 kts | 130° |
| 2026-04-30 02:21 | 24.98418 | 34.03702 | 34972 ft | 502 kts | 130° |
| 2026-04-30 02:22 | 24.95149 | 34.09051 | 34971 ft | 502 kts | 130° |
| 2026-04-30 02:22 | 24.91246 | 34.15426 | 34971 ft | 502 kts | 130° |
| 2026-04-30 02:23 | 24.87336 | 34.21801 | 34974 ft | 502 kts | 130° |
| 2026-04-30 02:23 | 24.83426 | 34.28171 | 34980 ft | 502 kts | 130° |
| 2026-04-30 02:24 | 24.79512 | 34.34537 | 34982 ft | 502 kts | 130° |
| 2026-04-30 02:24 | 24.75593 | 34.40903 | 34983 ft | 502 kts | 130° |
| 2026-04-30 02:25 | 24.71673 | 34.47264 | 34986 ft | 502 kts | 131° |
| 2026-04-30 02:25 | 24.67753 | 34.53618 | 34982 ft | 502 kts | 131° |
| 2026-04-30 02:26 | 24.63857 | 34.59923 | 34984 ft | 501 kts | 131° |
| 2026-04-30 02:26 | 24.59932 | 34.66265 | 34984 ft | 501 kts | 131° |
| 2026-04-30 02:27 | 24.56005 | 34.72603 | 34983 ft | 502 kts | 131° |
| 2026-04-30 02:27 | 24.52076 | 34.78937 | 34979 ft | 502 kts | 131° |
| 2026-04-30 02:28 | 24.48145 | 34.85265 | 34971 ft | 501 kts | 131° |
| 2026-04-30 02:28 | 24.44216 | 34.91585 | 34972 ft | 501 kts | 131° |
| 2026-04-30 02:29 | 24.40279 | 34.97914 | 34976 ft | 502 kts | 131° |
| 2026-04-30 02:29 | 24.36341 | 35.04225 | 34968 ft | 500 kts | 131° |
| 2026-04-30 02:30 | 24.32411 | 35.10523 | 34967 ft | 500 kts | 131° |
| 2026-04-30 02:30 | 24.28481 | 35.16805 | 34965 ft | 500 kts | 131° |
| 2026-04-30 02:31 | 24.24548 | 35.23082 | 34967 ft | 500 kts | 131° |
| 2026-04-30 02:31 | 24.20613 | 35.29359 | 34956 ft | 499 kts | 131° |
| 2026-04-30 02:32 | 24.16679 | 35.35630 | 34950 ft | 500 kts | 131° |
| 2026-04-30 02:32 | 24.12739 | 35.41900 | 34949 ft | 500 kts | 131° |
| 2026-04-30 02:33 | 24.08798 | 35.48164 | 34947 ft | 499 kts | 131° |
| 2026-04-30 02:33 | 24.04857 | 35.54420 | 34946 ft | 499 kts | 132° |
| 2026-04-30 02:34 | 24.00917 | 35.60666 | 34938 ft | 499 kts | 132° |
| 2026-04-30 02:34 | 23.96974 | 35.66909 | 34936 ft | 498 kts | 132° |
| 2026-04-30 02:35 | 23.93031 | 35.73144 | 34939 ft | 498 kts | 132° |
| 2026-04-30 02:35 | 23.89088 | 35.79365 | 34935 ft | 497 kts | 132° |
| 2026-04-30 02:36 | 23.85143 | 35.85578 | 34932 ft | 497 kts | 132° |
| 2026-04-30 02:36 | 23.81198 | 35.91785 | 34933 ft | 497 kts | 132° |
| 2026-04-30 02:37 | 23.77254 | 35.97983 | 34934 ft | 497 kts | 132° |
| 2026-04-30 02:37 | 23.73307 | 36.04180 | 34934 ft | 497 kts | 132° |
| 2026-04-30 02:38 | 23.69361 | 36.10368 | 34934 ft | 497 kts | 132° |
| 2026-04-30 02:38 | 23.65412 | 36.16552 | 34937 ft | 497 kts | 132° |
| 2026-04-30 02:39 | 23.61458 | 36.22737 | 34934 ft | 496 kts | 132° |
| 2026-04-30 02:39 | 23.57510 | 36.28905 | 34928 ft | 496 kts | 132° |
| 2026-04-30 02:40 | 23.53559 | 36.35071 | 34936 ft | 496 kts | 132° |
| 2026-04-30 02:40 | 23.49627 | 36.41198 | 34936 ft | 496 kts | 132° |
| 2026-04-30 02:41 | 23.45675 | 36.47350 | 34935 ft | 495 kts | 132° |
| 2026-04-30 02:41 | 23.41733 | 36.53480 | 34933 ft | 494 kts | 132° |
| 2026-04-30 02:42 | 23.37792 | 36.59599 | 34937 ft | 493 kts | 132° |
| 2026-04-30 02:42 | 23.33852 | 36.65710 | 34935 ft | 493 kts | 132° |
| 2026-04-30 02:43 | 23.29907 | 36.71820 | 34932 ft | 493 kts | 132° |
| 2026-04-30 02:43 | 23.25965 | 36.77920 | 34927 ft | 493 kts | 132° |
| 2026-04-30 02:44 | 23.22028 | 36.84006 | 34926 ft | 492 kts | 132° |
| 2026-04-30 02:44 | 23.18089 | 36.90086 | 34932 ft | 492 kts | 132° |
| 2026-04-30 02:45 | 23.14148 | 36.96162 | 34929 ft | 492 kts | 132° |
| 2026-04-30 02:45 | 23.10204 | 37.02235 | 34928 ft | 491 kts | 132° |
| 2026-04-30 02:46 | 23.06266 | 37.08293 | 34930 ft | 490 kts | 132° |
| 2026-04-30 02:46 | 23.02332 | 37.14338 | 34914 ft | 490 kts | 132° |
| 2026-04-30 02:47 | 22.98393 | 37.20364 | 34929 ft | 488 kts | 132° |
| 2026-04-30 02:47 | 22.94457 | 37.26366 | 34925 ft | 487 kts | 132° |
| 2026-04-30 02:48 | 22.90528 | 37.32352 | 34924 ft | 487 kts | 132° |
| 2026-04-30 02:48 | 22.86602 | 37.38329 | 34926 ft | 487 kts | 132° |
| 2026-04-30 02:49 | 22.82674 | 37.44303 | 34925 ft | 487 kts | 132° |
| 2026-04-30 02:49 | 22.78744 | 37.50273 | 34936 ft | 486 kts | 132° |
| 2026-04-30 02:50 | 22.74820 | 37.56228 | 34936 ft | 485 kts | 132° |
| 2026-04-30 02:50 | 22.70895 | 37.62179 | 34918 ft | 485 kts | 132° |
| 2026-04-30 02:51 | 22.66980 | 37.68141 | 34917 ft | 485 kts | 131° |
| 2026-04-30 02:51 | 22.63075 | 37.74104 | 34927 ft | 485 kts | 131° |
| 2026-04-30 02:52 | 22.59175 | 37.80053 | 34928 ft | 484 kts | 131° |
| 2026-04-30 02:52 | 22.55270 | 37.85996 | 34924 ft | 484 kts | 131° |
| 2026-04-30 02:53 | 22.51368 | 37.91929 | 34922 ft | 484 kts | 131° |
| 2026-04-30 02:53 | 22.47460 | 37.97862 | 34920 ft | 484 kts | 131° |
| 2026-04-30 02:54 | 22.43553 | 38.03788 | 34922 ft | 484 kts | 131° |
| 2026-04-30 02:54 | 22.39649 | 38.09704 | 34919 ft | 484 kts | 131° |
| 2026-04-30 02:55 | 22.35740 | 38.15620 | 34920 ft | 484 kts | 131° |
| 2026-04-30 02:55 | 22.31831 | 38.21528 | 34913 ft | 483 kts | 131° |
| 2026-04-30 02:56 | 22.27924 | 38.27429 | 34916 ft | 483 kts | 131° |
| 2026-04-30 02:56 | 22.24010 | 38.33331 | 34911 ft | 483 kts | 131° |
| 2026-04-30 02:57 | 22.20122 | 38.39188 | 34908 ft | 483 kts | 131° |
| 2026-04-30 02:57 | 22.16208 | 38.45078 | 34908 ft | 483 kts | 131° |
| 2026-04-30 02:58 | 22.12295 | 38.50959 | 34904 ft | 482 kts | 131° |
| 2026-04-30 02:58 | 22.08355 | 38.56876 | 34909 ft | 482 kts | 131° |
| 2026-04-30 02:59 | 22.04444 | 38.62741 | 34908 ft | 482 kts | 131° |
| 2026-04-30 02:59 | 22.00531 | 38.68602 | 34899 ft | 481 kts | 131° |
| 2026-04-30 03:00 | 21.96624 | 38.74452 | 34908 ft | 481 kts | 131° |
| 2026-04-30 03:00 | 21.93378 | 38.79304 | 34901 ft | 480 kts | 131° |
| 2026-04-30 03:01 | 21.89470 | 38.85140 | 34896 ft | 481 kts | 131° |
| 2026-04-30 03:01 | 21.85557 | 38.90979 | 34897 ft | 480 kts | 131° |
| 2026-04-30 03:02 | 21.81656 | 38.96794 | 34894 ft | 479 kts | 131° |
| 2026-04-30 03:02 | 21.77758 | 39.02598 | 34886 ft | 478 kts | 131° |
| 2026-04-30 03:03 | 21.73475 | 39.07966 | 34880 ft | 466 kts | 147° |
| 2026-04-30 03:03 | 21.68009 | 39.11290 | 34883 ft | 442 kts | 170° |
| 2026-04-30 03:03 | 21.65048 | 39.11994 | 34883 ft | 430 kts | 181° |
| 2026-04-30 03:04 | 21.59140 | 39.12143 | 34884 ft | 423 kts | 188° |
| 2026-04-30 03:04 | 21.53261 | 39.11942 | 34887 ft | 422 kts | 189° |
| 2026-04-30 03:05 | 21.47386 | 39.11724 | 34888 ft | 423 kts | 189° |
| 2026-04-30 03:05 | 21.41503 | 39.11547 | 34894 ft | 424 kts | 188° |
| 2026-04-30 03:06 | 21.35606 | 39.11395 | 34909 ft | 424 kts | 188° |
| 2026-04-30 03:06 | 21.29706 | 39.11248 | 34909 ft | 424 kts | 188° |
| 2026-04-30 03:07 | 21.23806 | 39.11100 | 34911 ft | 424 kts | 188° |
| 2026-04-30 03:07 | 21.17905 | 39.10951 | 34908 ft | 424 kts | 188° |
| 2026-04-30 03:08 | 21.11995 | 39.10800 | 34915 ft | 425 kts | 188° |
| 2026-04-30 03:08 | 21.06079 | 39.10649 | 34918 ft | 425 kts | 188° |
| 2026-04-30 03:09 | 21.00168 | 39.10500 | 34922 ft | 425 kts | 188° |
| 2026-04-30 03:09 | 20.94253 | 39.10350 | 34904 ft | 425 kts | 188° |
| 2026-04-30 03:10 | 20.88337 | 39.10199 | 34919 ft | 426 kts | 187° |
| 2026-04-30 03:10 | 20.82417 | 39.10050 | 34917 ft | 426 kts | 187° |
| 2026-04-30 03:11 | 20.76493 | 39.09900 | 34917 ft | 426 kts | 187° |
| 2026-04-30 03:11 | 20.70572 | 39.09751 | 34914 ft | 426 kts | 187° |
| 2026-04-30 03:12 | 20.64652 | 39.09602 | 34916 ft | 426 kts | 187° |
| 2026-04-30 03:12 | 20.58731 | 39.09453 | 34914 ft | 425 kts | 187° |
| 2026-04-30 03:13 | 20.52805 | 39.09304 | 34914 ft | 426 kts | 187° |
| 2026-04-30 03:13 | 20.46884 | 39.09154 | 34914 ft | 426 kts | 187° |
| 2026-04-30 03:14 | 20.40961 | 39.09005 | 34911 ft | 426 kts | 187° |
| 2026-04-30 03:14 | 20.35038 | 39.08857 | 34915 ft | 426 kts | 187° |
| 2026-04-30 03:15 | 20.29119 | 39.08708 | 34915 ft | 425 kts | 187° |
| 2026-04-30 03:15 | 20.23204 | 39.08560 | 34913 ft | 425 kts | 187° |
| 2026-04-30 03:16 | 20.17281 | 39.08412 | 34901 ft | 425 kts | 187° |
| 2026-04-30 03:16 | 20.11360 | 39.08263 | 34916 ft | 426 kts | 187° |
| 2026-04-30 03:17 | 20.05434 | 39.08114 | 34905 ft | 426 kts | 187° |
| 2026-04-30 03:17 | 19.99512 | 39.07966 | 34912 ft | 426 kts | 187° |
| 2026-04-30 03:18 | 19.93594 | 39.07818 | 34910 ft | 426 kts | 186° |
| 2026-04-30 03:18 | 19.87670 | 39.07670 | 34908 ft | 426 kts | 186° |
| 2026-04-30 03:19 | 19.81751 | 39.07523 | 34908 ft | 426 kts | 186° |
| 2026-04-30 03:19 | 19.75831 | 39.07376 | 34902 ft | 425 kts | 186° |
| 2026-04-30 03:20 | 19.69906 | 39.07228 | 34908 ft | 426 kts | 186° |
| 2026-04-30 03:20 | 19.63987 | 39.07081 | 34903 ft | 426 kts | 186° |
| 2026-04-30 03:21 | 19.58064 | 39.06933 | 34903 ft | 425 kts | 186° |
| 2026-04-30 03:21 | 19.52144 | 39.06786 | 34910 ft | 425 kts | 186° |
| 2026-04-30 03:22 | 19.46223 | 39.06639 | 34917 ft | 425 kts | 186° |
| 2026-04-30 03:22 | 19.40303 | 39.06492 | 34915 ft | 426 kts | 186° |
| 2026-04-30 03:23 | 19.34384 | 39.06345 | 34911 ft | 425 kts | 186° |
| 2026-04-30 03:23 | 19.28458 | 39.06199 | 34909 ft | 425 kts | 186° |
| 2026-04-30 03:24 | 19.22538 | 39.06052 | 34910 ft | 425 kts | 186° |
| 2026-04-30 03:24 | 19.16623 | 39.05906 | 34916 ft | 425 kts | 186° |
| 2026-04-30 03:25 | 19.10706 | 39.05728 | 34911 ft | 425 kts | 187° |
| 2026-04-30 03:25 | 19.04806 | 39.05412 | 34912 ft | 424 kts | 188° |
| 2026-04-30 03:26 | 18.98950 | 39.05063 | 34917 ft | 424 kts | 188° |
| 2026-04-30 03:26 | 18.93053 | 39.04721 | 34918 ft | 424 kts | 187° |
| 2026-04-30 03:27 | 18.87146 | 39.04390 | 34916 ft | 424 kts | 187° |
| 2026-04-30 03:27 | 18.81242 | 39.04062 | 34919 ft | 425 kts | 187° |
| 2026-04-30 03:28 | 18.75329 | 39.03734 | 34923 ft | 425 kts | 187° |
| 2026-04-30 03:28 | 18.69414 | 39.03407 | 34920 ft | 425 kts | 187° |
| 2026-04-30 03:29 | 18.63502 | 39.03079 | 34923 ft | 425 kts | 187° |
| 2026-04-30 03:29 | 18.57586 | 39.02751 | 34922 ft | 426 kts | 187° |
| 2026-04-30 03:30 | 18.51657 | 39.02423 | 34927 ft | 427 kts | 187° |
| 2026-04-30 03:30 | 18.45724 | 39.02095 | 34928 ft | 427 kts | 187° |
| 2026-04-30 03:31 | 18.39788 | 39.01767 | 34928 ft | 427 kts | 187° |
| 2026-04-30 03:31 | 18.33858 | 39.01439 | 34922 ft | 427 kts | 187° |
| 2026-04-30 03:32 | 18.27910 | 39.01110 | 34932 ft | 429 kts | 187° |
| 2026-04-30 03:32 | 18.21948 | 39.00781 | 34930 ft | 429 kts | 187° |
| 2026-04-30 03:33 | 18.15985 | 39.00462 | 34930 ft | 429 kts | 186° |
| 2026-04-30 03:33 | 18.10009 | 39.00228 | 34933 ft | 430 kts | 186° |
| 2026-04-30 03:34 | 18.04030 | 39.00026 | 34930 ft | 430 kts | 186° |
| 2026-04-30 03:34 | 17.98043 | 38.99820 | 34930 ft | 430 kts | 186° |
| 2026-04-30 03:35 | 17.92060 | 38.99608 | 34933 ft | 430 kts | 186° |
| 2026-04-30 03:35 | 17.86116 | 38.99394 | 34933 ft | 430 kts | 186° |
| 2026-04-30 03:36 | 17.80093 | 38.99176 | 34927 ft | 430 kts | 186° |
| 2026-04-30 03:36 | 17.74108 | 38.98961 | 34936 ft | 430 kts | 185° |
| 2026-04-30 03:37 | 17.68128 | 38.98746 | 34936 ft | 430 kts | 185° |
| 2026-04-30 03:37 | 17.62145 | 38.98532 | 34934 ft | 430 kts | 185° |
| 2026-04-30 03:38 | 17.56159 | 38.98317 | 34938 ft | 430 kts | 185° |
| 2026-04-30 03:38 | 17.50176 | 38.98102 | 34940 ft | 430 kts | 185° |
| 2026-04-30 03:39 | 17.44184 | 38.97887 | 34944 ft | 431 kts | 185° |
| 2026-04-30 03:39 | 17.39203 | 38.97708 | 34939 ft | 431 kts | 185° |
| 2026-04-30 03:40 | 17.33212 | 38.97488 | 34937 ft | 431 kts | 185° |
| 2026-04-30 03:40 | 17.27224 | 38.97269 | 34950 ft | 431 kts | 185° |
| 2026-04-30 03:41 | 17.21224 | 38.97049 | 34941 ft | 431 kts | 185° |
| 2026-04-30 03:41 | 17.15228 | 38.96830 | 34941 ft | 431 kts | 185° |
| 2026-04-30 03:42 | 17.09231 | 38.96612 | 34946 ft | 431 kts | 185° |
| 2026-04-30 03:42 | 17.03234 | 38.96393 | 34951 ft | 431 kts | 185° |
| 2026-04-30 03:43 | 16.97234 | 38.96174 | 34945 ft | 431 kts | 185° |
| 2026-04-30 03:43 | 16.91237 | 38.95957 | 34948 ft | 431 kts | 185° |
| 2026-04-30 03:44 | 16.85240 | 38.95738 | 34947 ft | 431 kts | 185° |
| 2026-04-30 03:44 | 16.79242 | 38.95520 | 34953 ft | 431 kts | 185° |
| 2026-04-30 03:45 | 16.73246 | 38.95302 | 34953 ft | 431 kts | 185° |
| 2026-04-30 03:45 | 16.67281 | 38.95085 | 34959 ft | 431 kts | 185° |
| 2026-04-30 03:46 | 16.61283 | 38.94867 | 34965 ft | 431 kts | 185° |
| 2026-04-30 03:46 | 16.55288 | 38.94650 | 34955 ft | 431 kts | 185° |
| 2026-04-30 03:47 | 16.49288 | 38.94433 | 34963 ft | 431 kts | 185° |
| 2026-04-30 03:47 | 16.43288 | 38.94216 | 34967 ft | 431 kts | 185° |
| 2026-04-30 03:48 | 16.37285 | 38.93998 | 34966 ft | 432 kts | 185° |
| 2026-04-30 03:48 | 16.31278 | 38.93781 | 34977 ft | 432 kts | 185° |
| 2026-04-30 03:49 | 16.25276 | 38.93564 | 34984 ft | 432 kts | 185° |
| 2026-04-30 03:49 | 16.19266 | 38.93347 | 34984 ft | 432 kts | 185° |
| 2026-04-30 03:50 | 16.13255 | 38.93130 | 34991 ft | 433 kts | 184° |
| 2026-04-30 03:50 | 16.07237 | 38.92912 | 34995 ft | 433 kts | 184° |
| 2026-04-30 03:51 | 16.01215 | 38.92695 | 34991 ft | 433 kts | 184° |
| 2026-04-30 03:51 | 15.95197 | 38.92479 | 35004 ft | 433 kts | 184° |
| 2026-04-30 03:52 | 15.89172 | 38.92261 | 34999 ft | 433 kts | 184° |
| 2026-04-30 03:52 | 15.83145 | 38.92042 | 35010 ft | 434 kts | 184° |
| 2026-04-30 03:53 | 15.77105 | 38.91825 | 35009 ft | 434 kts | 184° |
| 2026-04-30 03:53 | 15.71071 | 38.91609 | 35016 ft | 434 kts | 184° |
| 2026-04-30 03:54 | 15.65038 | 38.91394 | 35022 ft | 434 kts | 184° |
| 2026-04-30 03:54 | 15.59004 | 38.91177 | 35025 ft | 434 kts | 184° |
| 2026-04-30 03:55 | 15.52964 | 38.90961 | 35034 ft | 434 kts | 184° |
| 2026-04-30 03:55 | 15.46930 | 38.90745 | 35032 ft | 434 kts | 184° |
| 2026-04-30 03:56 | 15.40894 | 38.90527 | 35040 ft | 434 kts | 184° |
| 2026-04-30 03:56 | 15.34849 | 38.90310 | 35038 ft | 434 kts | 183° |
| 2026-04-30 03:57 | 15.28807 | 38.90096 | 35049 ft | 434 kts | 183° |
| 2026-04-30 03:57 | 15.22800 | 38.90024 | 35048 ft | 435 kts | 181° |
| 2026-04-30 03:58 | 15.16752 | 38.90041 | 35052 ft | 435 kts | 181° |
| 2026-04-30 03:58 | 15.10704 | 38.90056 | 35053 ft | 435 kts | 181° |
| 2026-04-30 03:59 | 15.04657 | 38.90056 | 35053 ft | 434 kts | 181° |
| 2026-04-30 03:59 | 14.98625 | 38.90051 | 35050 ft | 433 kts | 181° |
| 2026-04-30 04:00 | 14.92593 | 38.90043 | 35052 ft | 433 kts | 181° |
| 2026-04-30 04:00 | 14.86559 | 38.90037 | 35051 ft | 434 kts | 181° |
| 2026-04-30 04:01 | 14.80525 | 38.90030 | 35046 ft | 433 kts | 181° |
| 2026-04-30 04:01 | 14.74492 | 38.90024 | 35043 ft | 434 kts | 181° |
| 2026-04-30 04:02 | 14.68453 | 38.90018 | 35043 ft | 434 kts | 181° |
| 2026-04-30 04:02 | 14.62418 | 38.90012 | 35042 ft | 434 kts | 181° |
| 2026-04-30 04:03 | 14.56379 | 38.90006 | 35043 ft | 434 kts | 181° |
| 2026-04-30 04:03 | 14.50342 | 38.89999 | 35044 ft | 434 kts | 180° |
| 2026-04-30 04:04 | 14.44303 | 38.89952 | 35045 ft | 434 kts | 181° |
| 2026-04-30 04:04 | 14.38263 | 38.89879 | 35045 ft | 434 kts | 181° |
| 2026-04-30 04:05 | 14.32227 | 38.89807 | 35048 ft | 434 kts | 181° |
| 2026-04-30 04:05 | 14.26184 | 38.89740 | 35046 ft | 434 kts | 181° |
| 2026-04-30 04:06 | 14.20146 | 38.89675 | 35049 ft | 434 kts | 181° |
| 2026-04-30 04:06 | 14.14106 | 38.89609 | 35047 ft | 434 kts | 181° |
| 2026-04-30 04:07 | 14.08067 | 38.89543 | 35053 ft | 434 kts | 181° |
| 2026-04-30 04:08 | 13.99011 | 38.89420 | 35054 ft | 434 kts | 181° |
| 2026-04-30 04:08 | 13.92974 | 38.89306 | 35056 ft | 434 kts | 181° |
| 2026-04-30 04:09 | 13.86933 | 38.89192 | 35057 ft | 434 kts | 181° |
| 2026-04-30 04:09 | 13.80886 | 38.89082 | 35056 ft | 434 kts | 181° |
| 2026-04-30 04:10 | 13.74844 | 38.88972 | 35047 ft | 434 kts | 181° |
| 2026-04-30 04:10 | 13.68804 | 38.88863 | 35046 ft | 434 kts | 181° |
| 2026-04-30 04:11 | 13.62759 | 38.88755 | 35045 ft | 434 kts | 181° |
| 2026-04-30 04:11 | 13.56709 | 38.88646 | 35044 ft | 434 kts | 181° |
| 2026-04-30 04:12 | 13.50667 | 38.88537 | 35045 ft | 434 kts | 181° |
| 2026-04-30 04:12 | 13.44618 | 38.88428 | 35045 ft | 434 kts | 181° |
| 2026-04-30 04:13 | 13.38573 | 38.88319 | 35043 ft | 435 kts | 181° |
| 2026-04-30 04:13 | 13.32508 | 38.88210 | 35043 ft | 436 kts | 181° |
| 2026-04-30 04:14 | 13.26446 | 38.88102 | 35037 ft | 436 kts | 181° |
| 2026-04-30 04:14 | 13.20382 | 38.87993 | 35035 ft | 436 kts | 181° |
| 2026-04-30 04:15 | 13.14315 | 38.87884 | 35036 ft | 436 kts | 181° |
| 2026-04-30 04:15 | 13.08247 | 38.87775 | 35047 ft | 437 kts | 181° |
| 2026-04-30 04:16 | 13.02160 | 38.87666 | 35043 ft | 437 kts | 181° |
| 2026-04-30 04:16 | 12.96073 | 38.87557 | 35047 ft | 437 kts | 181° |
| 2026-04-30 04:17 | 12.89984 | 38.87431 | 35047 ft | 437 kts | 181° |
| 2026-04-30 04:17 | 12.83900 | 38.87261 | 35056 ft | 438 kts | 181° |
| 2026-04-30 04:18 | 12.77809 | 38.87082 | 35058 ft | 438 kts | 181° |
| 2026-04-30 04:18 | 12.71710 | 38.86907 | 35067 ft | 438 kts | 181° |
| 2026-04-30 04:19 | 12.65614 | 38.86736 | 35068 ft | 438 kts | 181° |
| 2026-04-30 04:19 | 12.59516 | 38.86565 | 35074 ft | 438 kts | 181° |
| 2026-04-30 04:20 | 12.53427 | 38.86395 | 35079 ft | 438 kts | 181° |
| 2026-04-30 04:20 | 12.48370 | 38.86253 | 35087 ft | 437 kts | 181° |
| 2026-04-30 04:21 | 12.42286 | 38.86083 | 35083 ft | 437 kts | 181° |
| 2026-04-30 04:21 | 12.36201 | 38.85913 | 35090 ft | 437 kts | 181° |
| 2026-04-30 04:22 | 12.30115 | 38.85744 | 35092 ft | 437 kts | 181° |
| 2026-04-30 04:22 | 12.24047 | 38.85575 | 35093 ft | 435 kts | 181° |
| 2026-04-30 04:23 | 12.17990 | 38.85408 | 35099 ft | 435 kts | 181° |
| 2026-04-30 04:23 | 12.11943 | 38.85241 | 35099 ft | 435 kts | 181° |
| 2026-04-30 04:24 | 12.05900 | 38.85074 | 35105 ft | 435 kts | 181° |
| 2026-04-30 04:24 | 11.99851 | 38.84907 | 35106 ft | 435 kts | 181° |
| 2026-04-30 04:25 | 11.93793 | 38.84739 | 35120 ft | 436 kts | 181° |
| 2026-04-30 04:25 | 11.87732 | 38.84573 | 35110 ft | 436 kts | 181° |
| 2026-04-30 04:26 | 11.81662 | 38.84405 | 35124 ft | 436 kts | 181° |
| 2026-04-30 04:26 | 11.75603 | 38.84238 | 35124 ft | 436 kts | 181° |
| 2026-04-30 04:27 | 11.69540 | 38.84070 | 35121 ft | 436 kts | 181° |
| 2026-04-30 04:27 | 11.63465 | 38.83902 | 35128 ft | 437 kts | 181° |
| 2026-04-30 04:28 | 11.57391 | 38.83736 | 35128 ft | 437 kts | 181° |
| 2026-04-30 04:28 | 11.51312 | 38.83569 | 35130 ft | 437 kts | 181° |
| 2026-04-30 04:29 | 11.45243 | 38.83402 | 35130 ft | 437 kts | 181° |
| 2026-04-30 04:29 | 11.39166 | 38.83235 | 35141 ft | 437 kts | 181° |
| 2026-04-30 04:30 | 11.33088 | 38.83067 | 35140 ft | 437 kts | 181° |
| 2026-04-30 04:30 | 11.27011 | 38.82900 | 35145 ft | 437 kts | 181° |
| 2026-04-30 04:31 | 11.20934 | 38.82732 | 35145 ft | 437 kts | 181° |
| 2026-04-30 04:31 | 11.14860 | 38.82565 | 35157 ft | 437 kts | 181° |
| 2026-04-30 04:32 | 11.08789 | 38.82399 | 35159 ft | 436 kts | 181° |
| 2026-04-30 04:32 | 11.02722 | 38.82232 | 35174 ft | 436 kts | 181° |
| 2026-04-30 04:33 | 10.96691 | 38.82066 | 35173 ft | 436 kts | 181° |
| 2026-04-30 04:33 | 10.90624 | 38.81900 | 35186 ft | 436 kts | 181° |
| 2026-04-30 04:34 | 10.84558 | 38.81734 | 35185 ft | 435 kts | 181° |
| 2026-04-30 04:34 | 10.78509 | 38.81568 | 35194 ft | 434 kts | 181° |
| 2026-04-30 04:35 | 10.72471 | 38.81402 | 35192 ft | 434 kts | 181° |
| 2026-04-30 04:35 | 10.66387 | 38.81235 | 35197 ft | 434 kts | 181° |
| 2026-04-30 04:36 | 10.60347 | 38.81070 | 35188 ft | 434 kts | 181° |
| 2026-04-30 04:36 | 10.54304 | 38.80904 | 35196 ft | 434 kts | 180° |
| 2026-04-30 04:37 | 10.48263 | 38.80739 | 35193 ft | 434 kts | 180° |
| 2026-04-30 04:37 | 10.42218 | 38.80574 | 35196 ft | 434 kts | 180° |
| 2026-04-30 04:38 | 10.36178 | 38.80409 | 35200 ft | 434 kts | 180° |
| 2026-04-30 04:38 | 10.30175 | 38.80245 | 35199 ft | 434 kts | 180° |
| 2026-04-30 04:39 | 10.24121 | 38.80079 | 35209 ft | 436 kts | 180° |
| 2026-04-30 04:39 | 10.18045 | 38.79914 | 35207 ft | 437 kts | 180° |
| 2026-04-30 04:40 | 10.11973 | 38.79747 | 35223 ft | 437 kts | 180° |
| 2026-04-30 04:40 | 10.05897 | 38.79580 | 35223 ft | 437 kts | 180° |
| 2026-04-30 04:41 | 9.99820 | 38.79417 | 35244 ft | 437 kts | 180° |
| 2026-04-30 04:41 | 9.93731 | 38.79252 | 35245 ft | 438 kts | 180° |
| 2026-04-30 04:42 | 9.87635 | 38.79086 | 35261 ft | 438 kts | 180° |
| 2026-04-30 04:42 | 9.81536 | 38.78919 | 35261 ft | 438 kts | 180° |
| 2026-04-30 04:43 | 9.75432 | 38.78752 | 35274 ft | 438 kts | 180° |
| 2026-04-30 04:43 | 9.69334 | 38.78587 | 35278 ft | 439 kts | 180° |
| 2026-04-30 04:44 | 9.63223 | 38.78420 | 35302 ft | 439 kts | 180° |
| 2026-04-30 04:44 | 9.57107 | 38.78254 | 35306 ft | 439 kts | 180° |
| 2026-04-30 04:45 | 9.50992 | 38.78087 | 35328 ft | 439 kts | 180° |
| 2026-04-30 04:45 | 9.44881 | 38.77921 | 35328 ft | 439 kts | 180° |
| 2026-04-30 04:46 | 9.38769 | 38.77755 | 35339 ft | 439 kts | 180° |
| 2026-04-30 04:46 | 9.32659 | 38.77589 | 35350 ft | 439 kts | 180° |
| 2026-04-30 04:47 | 9.26549 | 38.77423 | 35350 ft | 439 kts | 180° |
| 2026-04-30 04:47 | 9.20443 | 38.77257 | 35352 ft | 439 kts | 180° |
| 2026-04-30 04:48 | 9.14333 | 38.77092 | 35353 ft | 439 kts | 180° |
| 2026-04-30 04:48 | 9.08277 | 38.76354 | 35374 ft | 440 kts | 191° |
| 2026-04-30 04:49 | 9.02315 | 38.74960 | 35371 ft | 440 kts | 193° |
| 2026-04-30 04:49 | 8.96373 | 38.73452 | 35373 ft | 440 kts | 193° |
| 2026-04-30 04:50 | 8.90433 | 38.71938 | 35374 ft | 440 kts | 193° |
| 2026-04-30 04:50 | 8.84490 | 38.70438 | 35359 ft | 440 kts | 193° |
| 2026-04-30 04:51 | 8.78554 | 38.68951 | 35350 ft | 439 kts | 193° |
| 2026-04-30 04:51 | 8.72614 | 38.67465 | 35338 ft | 439 kts | 193° |
| 2026-04-30 04:52 | 8.66678 | 38.65979 | 35325 ft | 439 kts | 193° |
| 2026-04-30 04:52 | 8.60741 | 38.64492 | 35311 ft | 440 kts | 193° |
| 2026-04-30 04:53 | 8.54803 | 38.63006 | 35311 ft | 440 kts | 193° |
| 2026-04-30 04:53 | 8.48863 | 38.61521 | 35303 ft | 440 kts | 193° |
| 2026-04-30 04:54 | 8.42925 | 38.60036 | 35303 ft | 440 kts | 193° |
| 2026-04-30 04:54 | 8.36982 | 38.58551 | 35293 ft | 440 kts | 193° |
| 2026-04-30 04:55 | 8.31041 | 38.57066 | 35292 ft | 440 kts | 193° |
| 2026-04-30 04:55 | 8.25091 | 38.55579 | 35278 ft | 441 kts | 193° |
| 2026-04-30 04:56 | 8.19131 | 38.54090 | 35279 ft | 441 kts | 193° |
| 2026-04-30 04:56 | 8.13170 | 38.52603 | 35265 ft | 442 kts | 193° |
| 2026-04-30 04:57 | 8.07207 | 38.51118 | 35251 ft | 441 kts | 193° |
| 2026-04-30 04:57 | 8.01241 | 38.49632 | 35255 ft | 441 kts | 193° |
| 2026-04-30 04:58 | 7.95292 | 38.48151 | 35239 ft | 439 kts | 193° |
| 2026-04-30 04:58 | 7.89364 | 38.46675 | 35249 ft | 439 kts | 193° |
| 2026-04-30 04:59 | 7.83438 | 38.45200 | 35233 ft | 439 kts | 193° |
| 2026-04-30 04:59 | 7.78514 | 38.43975 | 35233 ft | 439 kts | 193° |
| 2026-04-30 05:00 | 7.72587 | 38.42501 | 35221 ft | 439 kts | 193° |
| 2026-04-30 05:00 | 7.66649 | 38.41023 | 35225 ft | 440 kts | 193° |
| 2026-04-30 05:01 | 7.59735 | 38.39306 | 35216 ft | 440 kts | 193° |
| 2026-04-30 05:01 | 7.54752 | 38.38068 | 35213 ft | 440 kts | 193° |
| 2026-04-30 05:02 | 7.48806 | 38.36591 | 35209 ft | 440 kts | 193° |
| 2026-04-30 05:02 | 7.42878 | 38.35030 | 35209 ft | 440 kts | 194° |
| 2026-04-30 05:03 | 7.36969 | 38.33410 | 35206 ft | 441 kts | 195° |
| 2026-04-30 05:03 | 7.31050 | 38.31787 | 35204 ft | 440 kts | 195° |
| 2026-04-30 05:04 | 7.25135 | 38.30175 | 35201 ft | 441 kts | 194° |
| 2026-04-30 05:04 | 7.19218 | 38.28568 | 35203 ft | 440 kts | 194° |
| 2026-04-30 05:05 | 7.13296 | 38.26961 | 35192 ft | 439 kts | 194° |
| 2026-04-30 05:05 | 7.07412 | 38.25365 | 35192 ft | 437 kts | 194° |
| 2026-04-30 05:06 | 6.98612 | 38.22977 | 35186 ft | 436 kts | 194° |
| 2026-04-30 05:06 | 6.92747 | 38.21387 | 35176 ft | 437 kts | 194° |
| 2026-04-30 05:07 | 6.86880 | 38.19796 | 35176 ft | 436 kts | 194° |
| 2026-04-30 05:07 | 6.81023 | 38.18209 | 35154 ft | 435 kts | 194° |
| 2026-04-30 05:08 | 6.75175 | 38.16623 | 35154 ft | 435 kts | 194° |
| 2026-04-30 05:08 | 6.69329 | 38.15040 | 35141 ft | 435 kts | 194° |
| 2026-04-30 05:09 | 6.63490 | 38.13458 | 35144 ft | 435 kts | 194° |
| 2026-04-30 05:09 | 6.57643 | 38.11875 | 35139 ft | 435 kts | 194° |
| 2026-04-30 05:10 | 6.51787 | 38.10289 | 35138 ft | 437 kts | 194° |
| 2026-04-30 05:10 | 6.45916 | 38.08689 | 35116 ft | 437 kts | 195° |
| 2026-04-30 05:11 | 6.40047 | 38.07087 | 35116 ft | 437 kts | 195° |
| 2026-04-30 05:11 | 6.34183 | 38.05488 | 35113 ft | 437 kts | 195° |
| 2026-04-30 05:12 | 6.28313 | 38.03888 | 35112 ft | 437 kts | 194° |
| 2026-04-30 05:12 | 6.22454 | 38.02291 | 35109 ft | 436 kts | 194° |
| 2026-04-30 05:13 | 6.16599 | 38.00696 | 35113 ft | 436 kts | 194° |
| 2026-04-30 05:13 | 6.10746 | 37.99103 | 35097 ft | 436 kts | 194° |
| 2026-04-30 05:14 | 6.04887 | 37.97507 | 35096 ft | 436 kts | 194° |
| 2026-04-30 05:14 | 5.99031 | 37.95913 | 35103 ft | 436 kts | 194° |
| 2026-04-30 05:15 | 5.93183 | 37.94322 | 35102 ft | 436 kts | 194° |
| 2026-04-30 05:15 | 5.87327 | 37.92729 | 35102 ft | 436 kts | 194° |
| 2026-04-30 05:16 | 5.81475 | 37.91137 | 35100 ft | 436 kts | 194° |
| 2026-04-30 05:16 | 5.75623 | 37.89546 | 35096 ft | 436 kts | 194° |
| 2026-04-30 05:17 | 5.69801 | 37.87963 | 35094 ft | 436 kts | 194° |
| 2026-04-30 05:17 | 5.63949 | 37.86372 | 35096 ft | 436 kts | 194° |
| 2026-04-30 05:18 | 5.58095 | 37.84780 | 35100 ft | 436 kts | 194° |
| 2026-04-30 05:18 | 5.52201 | 37.83179 | 35099 ft | 436 kts | 194° |
| 2026-04-30 05:19 | 5.46346 | 37.81588 | 35100 ft | 436 kts | 194° |
| 2026-04-30 05:19 | 5.40492 | 37.79998 | 35092 ft | 436 kts | 194° |
| 2026-04-30 05:20 | 5.34676 | 37.78419 | 35090 ft | 436 kts | 194° |
| 2026-04-30 05:20 | 5.28780 | 37.76818 | 35086 ft | 436 kts | 194° |
| 2026-04-30 05:21 | 5.22927 | 37.75229 | 35086 ft | 436 kts | 194° |
| 2026-04-30 05:21 | 5.17068 | 37.73639 | 35084 ft | 436 kts | 194° |
| 2026-04-30 05:22 | 5.11209 | 37.72049 | 35087 ft | 436 kts | 194° |
| 2026-04-30 05:22 | 5.05351 | 37.70460 | 35072 ft | 436 kts | 194° |
| 2026-04-30 05:23 | 4.99491 | 37.68870 | 35076 ft | 436 kts | 194° |
| 2026-04-30 05:23 | 4.93632 | 37.67281 | 35069 ft | 436 kts | 194° |
| 2026-04-30 05:24 | 4.87771 | 37.65692 | 35069 ft | 436 kts | 194° |
| 2026-04-30 05:24 | 4.81912 | 37.64103 | 35066 ft | 436 kts | 194° |
| 2026-04-30 05:25 | 4.76040 | 37.62512 | 35067 ft | 438 kts | 194° |
| 2026-04-30 05:25 | 4.70160 | 37.60919 | 35062 ft | 438 kts | 194° |
| 2026-04-30 05:26 | 4.64278 | 37.59325 | 35064 ft | 438 kts | 194° |
| 2026-04-30 05:26 | 4.58392 | 37.57730 | 35059 ft | 438 kts | 194° |
| 2026-04-30 05:27 | 4.52507 | 37.56136 | 35061 ft | 438 kts | 194° |
| 2026-04-30 05:27 | 4.46681 | 37.54558 | 35053 ft | 436 kts | 194° |
| 2026-04-30 05:28 | 4.40836 | 37.52976 | 35052 ft | 435 kts | 194° |
| 2026-04-30 05:28 | 4.34992 | 37.51394 | 35045 ft | 435 kts | 194° |
| 2026-04-30 05:29 | 4.29143 | 37.49810 | 35045 ft | 435 kts | 194° |
| 2026-04-30 05:29 | 4.23295 | 37.48228 | 35042 ft | 435 kts | 195° |
| 2026-04-30 05:30 | 4.17413 | 37.46636 | 35042 ft | 435 kts | 194° |
| 2026-04-30 05:30 | 4.11575 | 37.45056 | 35037 ft | 434 kts | 195° |
| 2026-04-30 05:31 | 4.05735 | 37.43477 | 35034 ft | 434 kts | 195° |
| 2026-04-30 05:31 | 3.99900 | 37.41896 | 35031 ft | 434 kts | 195° |
| 2026-04-30 05:32 | 3.94092 | 37.40223 | 35029 ft | 435 kts | 196° |
| 2026-04-30 05:32 | 3.88297 | 37.38493 | 35028 ft | 434 kts | 196° |
| 2026-04-30 05:33 | 3.82543 | 37.36778 | 35021 ft | 434 kts | 196° |
| 2026-04-30 05:33 | 3.76711 | 37.35050 | 35020 ft | 434 kts | 196° |
| 2026-04-30 05:34 | 3.70953 | 37.33349 | 35021 ft | 434 kts | 196° |
| 2026-04-30 05:34 | 3.65155 | 37.31637 | 35018 ft | 434 kts | 196° |
| 2026-04-30 05:35 | 3.59366 | 37.29928 | 35015 ft | 433 kts | 196° |
| 2026-04-30 05:35 | 3.53588 | 37.28222 | 35015 ft | 433 kts | 196° |
| 2026-04-30 05:36 | 3.47810 | 37.26516 | 35015 ft | 433 kts | 196° |
| 2026-04-30 05:36 | 3.42036 | 37.24811 | 35015 ft | 433 kts | 196° |
| 2026-04-30 05:37 | 3.36260 | 37.23106 | 35007 ft | 433 kts | 196° |
| 2026-04-30 05:37 | 3.30468 | 37.21396 | 35010 ft | 435 kts | 196° |
| 2026-04-30 05:38 | 3.24653 | 37.19680 | 35015 ft | 436 kts | 197° |
| 2026-04-30 05:38 | 3.18838 | 37.17965 | 35015 ft | 436 kts | 197° |
| 2026-04-30 05:39 | 3.13023 | 37.16249 | 35018 ft | 436 kts | 197° |
| 2026-04-30 05:39 | 3.08185 | 37.14822 | 35017 ft | 436 kts | 196° |
| 2026-04-30 05:40 | 3.02367 | 37.13106 | 35018 ft | 436 kts | 197° |
| 2026-04-30 05:40 | 2.96509 | 37.11378 | 35020 ft | 436 kts | 197° |
| 2026-04-30 05:41 | 2.90723 | 37.09671 | 35022 ft | 436 kts | 197° |
| 2026-04-30 05:41 | 2.84897 | 37.07954 | 35020 ft | 436 kts | 197° |
| 2026-04-30 05:42 | 2.79074 | 37.06236 | 35026 ft | 436 kts | 197° |
| 2026-04-30 05:42 | 2.73253 | 37.04520 | 35027 ft | 436 kts | 197° |
| 2026-04-30 05:43 | 2.67428 | 37.02803 | 35028 ft | 436 kts | 197° |
| 2026-04-30 05:43 | 2.61602 | 37.01086 | 35029 ft | 436 kts | 197° |
| 2026-04-30 05:44 | 2.55781 | 36.99370 | 35036 ft | 436 kts | 197° |
| 2026-04-30 05:44 | 2.49958 | 36.97654 | 35038 ft | 437 kts | 197° |
| 2026-04-30 05:45 | 2.44126 | 36.95935 | 35033 ft | 437 kts | 197° |
| 2026-04-30 05:45 | 2.38295 | 36.94217 | 35034 ft | 437 kts | 197° |
| 2026-04-30 05:46 | 2.32466 | 36.92500 | 35035 ft | 437 kts | 197° |
| 2026-04-30 05:46 | 2.26598 | 36.90771 | 35042 ft | 436 kts | 197° |
| 2026-04-30 05:47 | 2.20772 | 36.89055 | 35043 ft | 437 kts | 197° |
| 2026-04-30 05:47 | 2.14946 | 36.87339 | 35050 ft | 437 kts | 197° |
| 2026-04-30 05:48 | 2.09119 | 36.85623 | 35050 ft | 435 kts | 196° |
| 2026-04-30 05:48 | 2.03354 | 36.83925 | 35045 ft | 435 kts | 196° |
| 2026-04-30 05:49 | 1.97553 | 36.82217 | 35045 ft | 434 kts | 196° |
| 2026-04-30 05:49 | 1.91757 | 36.80510 | 35050 ft | 434 kts | 196° |
| 2026-04-30 05:50 | 1.85957 | 36.78802 | 35050 ft | 434 kts | 196° |
| 2026-04-30 05:50 | 1.80161 | 36.77096 | 35056 ft | 434 kts | 196° |
| 2026-04-30 05:51 | 1.74369 | 36.75391 | 35056 ft | 433 kts | 196° |
| 2026-04-30 05:51 | 1.68588 | 36.73689 | 35048 ft | 433 kts | 196° |
| 2026-04-30 05:52 | 1.62799 | 36.71984 | 35047 ft | 434 kts | 196° |
| 2026-04-30 05:52 | 1.57010 | 36.70280 | 35059 ft | 434 kts | 196° |
| 2026-04-30 05:53 | 1.51183 | 36.68566 | 35059 ft | 433 kts | 196° |
| 2026-04-30 05:53 | 1.45416 | 36.66869 | 35070 ft | 431 kts | 196° |
| 2026-04-30 05:54 | 1.39671 | 36.65178 | 35072 ft | 430 kts | 196° |
| 2026-04-30 05:54 | 1.33961 | 36.63497 | 35073 ft | 431 kts | 196° |
| 2026-04-30 05:55 | 1.28214 | 36.61806 | 35076 ft | 431 kts | 196° |
| 2026-04-30 05:55 | 1.22467 | 36.60115 | 35085 ft | 430 kts | 197° |
| 2026-04-30 05:56 | 1.16727 | 36.58426 | 35089 ft | 429 kts | 197° |
| 2026-04-30 05:56 | 1.11011 | 36.56744 | 35087 ft | 428 kts | 197° |
| 2026-04-30 05:57 | 1.05286 | 36.55060 | 35086 ft | 429 kts | 197° |
| 2026-04-30 05:57 | 0.99568 | 36.53379 | 35086 ft | 429 kts | 197° |
| 2026-04-30 05:58 | 0.93796 | 36.51697 | 35100 ft | 428 kts | 196° |
| 2026-04-30 05:58 | 0.88075 | 36.50032 | 35101 ft | 428 kts | 197° |
| 2026-04-30 05:59 | 0.82400 | 36.48380 | 35114 ft | 428 kts | 196° |
| 2026-04-30 05:59 | 0.76672 | 36.46713 | 35113 ft | 429 kts | 197° |
| 2026-04-30 06:00 | 0.70939 | 36.45045 | 35116 ft | 429 kts | 197° |
| 2026-04-30 06:00 | 0.65175 | 36.43367 | 35116 ft | 429 kts | 197° |
| 2026-04-30 06:01 | 0.59485 | 36.41711 | 35127 ft | 428 kts | 197° |
| 2026-04-30 06:01 | 0.53779 | 36.40050 | 35124 ft | 426 kts | 197° |
| 2026-04-30 06:02 | 0.48085 | 36.38393 | 35142 ft | 427 kts | 197° |
| 2026-04-30 06:02 | 0.42389 | 36.36735 | 35141 ft | 426 kts | 197° |
| 2026-04-30 06:03 | 0.36651 | 36.35065 | 35142 ft | 427 kts | 197° |
| 2026-04-30 06:03 | 0.30956 | 36.33408 | 35138 ft | 426 kts | 197° |
| 2026-04-30 06:04 | 0.25256 | 36.31749 | 35141 ft | 426 kts | 196° |
| 2026-04-30 06:05 | 0.16712 | 36.29263 | 35156 ft | 427 kts | 196° |
| 2026-04-30 06:05 | 0.11015 | 36.27605 | 35173 ft | 426 kts | 196° |
| 2026-04-30 06:06 | 0.05315 | 36.25946 | 35175 ft | 426 kts | 196° |
| 2026-04-30 06:06 | -0.00381 | 36.24288 | 35175 ft | 427 kts | 196° |
| 2026-04-30 06:07 | -0.06098 | 36.22624 | 35177 ft | 428 kts | 195° |
| 2026-04-30 06:07 | -0.11816 | 36.20960 | 35179 ft | 428 kts | 195° |
| 2026-04-30 06:08 | -0.17533 | 36.19297 | 35177 ft | 428 kts | 196° |
| 2026-04-30 06:08 | -0.23257 | 36.17638 | 35182 ft | 428 kts | 194° |
| 2026-04-30 06:08 | -0.26185 | 36.17146 | 35183 ft | 427 kts | 182° |
| 2026-04-30 06:09 | -0.29132 | 36.17419 | 35189 ft | 427 kts | 166° |
| 2026-04-30 06:09 | -0.31885 | 36.18505 | 35188 ft | 427 kts | 150° |
| 2026-04-30 06:09 | -0.34221 | 36.20317 | 35189 ft | 428 kts | 134° |
| 2026-04-30 06:10 | -0.38003 | 36.24920 | 35203 ft | 429 kts | 128° |
| 2026-04-30 06:10 | -0.42145 | 36.29186 | 35203 ft | 428 kts | 143° |
| 2026-04-30 06:11 | -0.47389 | 36.31940 | 35202 ft | 427 kts | 160° |
| 2026-04-30 06:11 | -0.53002 | 36.33904 | 35207 ft | 428 kts | 161° |
| 2026-04-30 06:12 | -0.58603 | 36.35827 | 34928 ft | 428 kts | 161° |
| 2026-04-30 06:12 | -0.61404 | 36.36791 | 33976 ft | 426 kts | 161° |
| 2026-04-30 06:12 | -0.64223 | 36.37762 | 32627 ft | 430 kts | 161° |
| 2026-04-30 06:12 | -0.67055 | 36.38738 | 31218 ft | 433 kts | 161° |
| 2026-04-30 06:13 | -0.69921 | 36.39726 | 29713 ft | 437 kts | 161° |
| 2026-04-30 06:13 | -0.72797 | 36.40718 | 28176 ft | 438 kts | 161° |
| 2026-04-30 06:13 | -0.75670 | 36.41709 | 26835 ft | 435 kts | 161° |
| 2026-04-30 06:13 | -0.78494 | 36.42684 | 26009 ft | 421 kts | 161° |
| 2026-04-30 06:14 | -0.81202 | 36.43618 | 25393 ft | 405 kts | 161° |
| 2026-04-30 06:14 | -0.83855 | 36.44534 | 24793 ft | 403 kts | 161° |
| 2026-04-30 06:14 | -0.86502 | 36.45447 | 24179 ft | 402 kts | 161° |
| 2026-04-30 06:14 | -0.89154 | 36.46362 | 23494 ft | 402 kts | 161° |
| 2026-04-30 06:15 | -0.91793 | 36.47272 | 22817 ft | 400 kts | 161° |
| 2026-04-30 06:15 | -0.94416 | 36.48177 | 22188 ft | 397 kts | 161° |
| 2026-04-30 06:15 | -0.97015 | 36.49074 | 21552 ft | 394 kts | 161° |
| 2026-04-30 06:15 | -0.99597 | 36.49965 | 20926 ft | 391 kts | 161° |
| 2026-04-30 06:16 | -1.02164 | 36.50850 | 20283 ft | 389 kts | 161° |
| 2026-04-30 06:16 | -1.04717 | 36.51731 | 19649 ft | 387 kts | 161° |
| 2026-04-30 06:16 | -1.07256 | 36.52607 | 19029 ft | 385 kts | 161° |
| 2026-04-30 06:16 | -1.09783 | 36.53479 | 18395 ft | 383 kts | 161° |
| 2026-04-30 06:17 | -1.12300 | 36.54347 | 17678 ft | 381 kts | 161° |
| 2026-04-30 06:17 | -1.13952 | 36.54918 | 17258 ft | 378 kts | 161° |
| 2026-04-30 06:17 | -1.16425 | 36.55771 | 16656 ft | 374 kts | 161° |
| 2026-04-30 06:17 | -1.19659 | 36.56887 | 15867 ft | 369 kts | 161° |
| 2026-04-30 06:18 | -1.21288 | 36.57449 | 15454 ft | 366 kts | 161° |
| 2026-04-30 06:18 | -1.23690 | 36.58278 | 14801 ft | 364 kts | 160° |
| 2026-04-30 06:18 | -1.26072 | 36.59099 | 14196 ft | 361 kts | 160° |
| 2026-04-30 06:18 | -1.28434 | 36.59914 | 13541 ft | 357 kts | 160° |
| 2026-04-30 06:19 | -1.30765 | 36.60717 | 12930 ft | 351 kts | 160° |
| 2026-04-30 06:19 | -1.33055 | 36.61507 | 12347 ft | 346 kts | 160° |
| 2026-04-30 06:19 | -1.35318 | 36.62288 | 11747 ft | 341 kts | 160° |
| 2026-04-30 06:19 | -1.37511 | 36.63135 | 11166 ft | 336 kts | 152° |
| 2026-04-30 06:20 | -1.39358 | 36.64522 | 10598 ft | 330 kts | 134° |
| 2026-04-30 06:20 | -1.40880 | 36.66167 | 10294 ft | 315 kts | 127° |
| 2026-04-30 06:20 | -1.42150 | 36.67883 | 10097 ft | 300 kts | 121° |
| 2026-04-30 06:20 | -1.42841 | 36.69780 | 9617 ft | 286 kts | 96° |
| 2026-04-30 06:21 | -1.42523 | 36.71709 | 8832 ft | 285 kts | 65° |
| 2026-04-30 06:21 | -1.41501 | 36.73378 | 8310 ft | 279 kts | 62° |
| 2026-04-30 06:21 | -1.41040 | 36.75198 | 8061 ft | 264 kts | 93° |
| 2026-04-30 06:21 | -1.41568 | 36.76878 | 7775 ft | 250 kts | 123° |
| 2026-04-30 06:22 | -1.42605 | 36.78199 | 7565 ft | 234 kts | 122° |
| 2026-04-30 06:22 | -1.42994 | 36.79699 | 7329 ft | 220 kts | 81° |
| 2026-04-30 06:22 | -1.42321 | 36.80971 | 7284 ft | 206 kts | 41° |
| 2026-04-30 06:22 | -1.41146 | 36.81792 | 7318 ft | 205 kts | 36° |
| 2026-04-30 06:23 | -1.40020 | 36.82661 | 7425 ft | 205 kts | 42° |
| 2026-04-30 06:23 | -1.38993 | 36.83641 | 7400 ft | 200 kts | 47° |
| 2026-04-30 06:23 | -1.38066 | 36.84635 | 7383 ft | 193 kts | 45° |
| 2026-04-30 06:23 | -1.37161 | 36.85604 | 7326 ft | 189 kts | 54° |
| 2026-04-30 06:24 | -1.36425 | 36.86626 | 7372 ft | 177 kts | 55° |
| 2026-04-30 06:24 | -1.35701 | 36.87616 | 7072 ft | 180 kts | 55° |
| 2026-04-30 06:24 | -1.34969 | 36.88630 | 6547 ft | 178 kts | 55° |
| 2026-04-30 06:24 | -1.34255 | 36.89607 | 6046 ft | 169 kts | 53° |
| 2026-04-30 06:25 | -1.33570 | 36.90525 | 5679 ft | 163 kts | 53° |
| 2026-04-30 06:25 | -1.32942 | 36.91390 | 5434 ft | 145 kts | 54° |
| 2026-04-30 06:25 | -1.32382 | 36.92155 | 5338 ft | 124 kts | 54° |
| 2026-04-30 06:25 | -1.31938 | 36.92760 | 5318 ft | 94 kts | 54° |
| 2026-04-30 06:26 | -1.31600 | 36.93219 | 5315 ft | 61 kts | 53° |
| 2026-04-30 06:26 | -1.31396 | 36.93500 | 5309 ft | 47 kts | 54° |
| 2026-04-30 06:26 | -1.31287 | 36.93615 | 5315 ft | 9 kts | 0° |
| 2026-04-30 06:26 | -1.31230 | 36.93612 | 5313 ft | 8 kts | 353° |
| 2026-04-30 06:27 | -1.31173 | 36.93605 | 5312 ft | 9 kts | 354° |
| 2026-04-30 06:27 | -1.31112 | 36.93612 | 5306 ft | 9 kts | 21° |
| 2026-04-30 06:27 | -1.31066 | 36.93653 | 5305 ft | 9 kts | 59° |
| 2026-04-30 06:27 | -1.31058 | 36.93708 | 5311 ft | 7 kts | 89° |
| 2026-04-30 06:28 | -1.31074 | 36.93747 | 5307 ft | 6 kts | 122° |
| 2026-04-30 06:28 | -1.31107 | 36.93782 | 5304 ft | 9 kts | 144° |
| 2026-04-30 06:28 | -1.31170 | 36.93828 | 5306 ft | 13 kts | 144° |
| 2026-04-30 06:28 | -1.31253 | 36.93886 | 5303 ft | 16 kts | 144° |
| 2026-04-30 06:29 | -1.31347 | 36.93955 | 5306 ft | 18 kts | 143° |
| 2026-04-30 06:29 | -1.31453 | 36.93973 | 5308 ft | 16 kts | 221° |
| 2026-04-30 06:29 | -1.31521 | 36.93887 | 5312 ft | 17 kts | 233° |
| 2026-04-30 06:29 | -1.31593 | 36.93787 | 5313 ft | 19 kts | 233° |
| 2026-04-30 06:30 | -1.31680 | 36.93670 | 5312 ft | 22 kts | 233° |
| 2026-04-30 06:30 | -1.31776 | 36.93539 | 5310 ft | 25 kts | 234° |
| 2026-04-30 06:30 | -1.31882 | 36.93392 | 5312 ft | 27 kts | 233° |
| 2026-04-30 06:30 | -1.31997 | 36.93235 | 5314 ft | 29 kts | 233° |
| 2026-04-30 06:31 | -1.32117 | 36.93070 | 5317 ft | 30 kts | 233° |
| 2026-04-30 06:31 | -1.32240 | 36.92902 | 5326 ft | 31 kts | 233° |
| 2026-04-30 06:31 | -1.32370 | 36.92725 | 5337 ft | 32 kts | 233° |
| 2026-04-30 06:31 | -1.32507 | 36.92539 | 5333 ft | 34 kts | 234° |
| 2026-04-30 06:32 | -1.32649 | 36.92347 | 5336 ft | 29 kts | 233° |
| 2026-04-30 06:32 | -1.32766 | 36.92184 | 5338 ft | 28 kts | 234° |
| 2026-04-30 06:32 | -1.32876 | 36.92035 | 5338 ft | 26 kts | 233° |
| 2026-04-30 06:32 | -1.32977 | 36.91896 | 5342 ft | 23 kts | 234° |
| 2026-04-30 06:33 | -1.33072 | 36.91766 | 5337 ft | 25 kts | 234° |
| 2026-04-30 06:33 | -1.33186 | 36.91641 | 5333 ft | 23 kts | 219° |
| 2026-04-30 06:33 | -1.33285 | 36.91524 | 5335 ft | 21 kts | 236° |
| 2026-04-30 06:33 | -1.33345 | 36.91471 | 5334 ft | 8 kts | 177° |
| 2026-04-30 06:34 | -1.33388 | 36.91493 | 5333 ft | 7 kts | 142° |
| 2026-04-30 06:34 | -1.33406 | 36.91507 | 5334 ft | 2 kts | 140° |
| 2026-04-30 06:34 | -1.33415 | 36.91514 | 5335 ft | 1 kts | 143° |
| 2026-04-30 06:34 | -1.33417 | 36.91515 | 5335 ft | 0 kts | 143° |